<?xml version="1.0" encoding="UTF-8"?>
<gpx xmlns="http://www.topografix.com/GPX/1/1" xmlns:adv="http://www.garmin.com/xmlschemas/AdventuresExtensions/v1" xmlns:ctx="http://www.garmin.com/xmlschemas/CreationTimeExtension/v1" xmlns:gpxacc="http://www.garmin.com/xmlschemas/AccelerationExtension/v1" xmlns:gpxpx="http://www.garmin.com/xmlschemas/PowerExtension/v1" xmlns:gpxtpx="http://www.garmin.com/xmlschemas/TrackPointExtension/v1" xmlns:gpxtrx="http://www.garmin.com/xmlschemas/GpxExtensions/v3" xmlns:gpxx="http://www.garmin.com/xmlschemas/GpxExtensions/v3" xmlns:prs="http://www.garmin.com/xmlschemas/PressureExtension/v1" xmlns:tmd="http://www.garmin.com/xmlschemas/TripMetaDataExtensions/v1" xmlns:trp="http://www.garmin.com/xmlschemas/TripExtensions/v1" xmlns:vidx1="http://www.garmin.com/xmlschemas/VideoExtension/v1" xmlns:vptm="http://www.garmin.com/xmlschemas/ViaPointTransportationModeExtensions/v1" xmlns:wptx1="http://www.garmin.com/xmlschemas/WaypointExtension/v1" xmlns:xsi="http://www.w3.org/2001/XMLSchema-instance" xsi:schemaLocation="http://www.topografix.com/GPX/1/1 http://www.topografix.com/GPX/1/1/gpx.xsd http://www.garmin.com/xmlschemas/WaypointExtension/v1 http://www8.garmin.com/xmlschemas/WaypointExtensionv1.xsd http://www.garmin.com/xmlschemas/TrackPointExtension/v1 http://www.garmin.com/xmlschemas/TrackPointExtensionv1.xsd http://www.garmin.com/xmlschemas/GpxExtensions/v3 http://www8.garmin.com/xmlschemas/GpxExtensionsv3.xsd http://www.garmin.com/xmlschemas/ActivityExtension/v1 http://www8.garmin.com/xmlschemas/ActivityExtensionv1.xsd http://www.garmin.com/xmlschemas/AdventuresExtensions/v1 http://www8.garmin.com/xmlschemas/AdventuresExtensionv1.xsd http://www.garmin.com/xmlschemas/PressureExtension/v1 http://www.garmin.com/xmlschemas/PressureExtensionv1.xsd http://www.garmin.com/xmlschemas/TripExtensions/v1 http://www.garmin.com/xmlschemas/TripExtensionsv1.xsd http://www.garmin.com/xmlschemas/TripMetaDataExtensions/v1 http://www.garmin.com/xmlschemas/TripMetaDataExtensionsv1.xsd http://www.garmin.com/xmlschemas/ViaPointTransportationModeExtensions/v1 http://www.garmin.com/xmlschemas/ViaPointTransportationModeExtensionsv1.xsd http://www.garmin.com/xmlschemas/CreationTimeExtension/v1 http://www.garmin.com/xmlschemas/CreationTimeExtensionsv1.xsd http://www.garmin.com/xmlschemas/AccelerationExtension/v1 http://www.garmin.com/xmlschemas/AccelerationExtensionv1.xsd http://www.garmin.com/xmlschemas/PowerExtension/v1 http://www.garmin.com/xmlschemas/PowerExtensionv1.xsd http://www.garmin.com/xmlschemas/VideoExtension/v1 http://www.garmin.com/xmlschemas/VideoExtensionv1.xsd" version="1.1" creator="Garmin Desktop App">
  <metadata>
    <link href="http://www.garmin.com">
      <text>Garmin International</text>
    </link>
    <time>2020-01-21T15:00:16Z</time>
    <bounds minlat="45.660818265751004" maxlat="45.68287826143205" minlon="10.36305919289589" maxlon="10.391206294298172"/>
  </metadata>
  <trk>
    <name>492 Gazzane, Chiese, Piazza</name>
    <extensions>
      <gpxtrx:TrackExtension>
        <gpxtrx:DisplayColor>Black</gpxtrx:DisplayColor>
      </gpxtrx:TrackExtension>
    </extensions>
    <trkseg>
      <trkpt lat="45.660818265751004" lon="10.379046835005283">
        <ele>349.58</ele>
        <time>2020-01-15T12:46:52Z</time>
      </trkpt>
      <trkpt lat="45.66085774451494" lon="10.378933679312468">
        <ele>349.58</ele>
        <time>2020-01-15T12:46:30Z</time>
      </trkpt>
      <trkpt lat="45.66107081249356" lon="10.37878724746406">
        <ele>350.54</ele>
        <time>2020-01-15T12:46:09Z</time>
      </trkpt>
      <trkpt lat="45.661080200225115" lon="10.378776183351874">
        <ele>349.58</ele>
        <time>2020-01-15T12:46:07Z</time>
      </trkpt>
      <trkpt lat="45.661192601546645" lon="10.378656322136521">
        <ele>351.02</ele>
        <time>2020-01-15T12:45:49Z</time>
      </trkpt>
      <trkpt lat="45.66129829734564" lon="10.378575436770916">
        <ele>351.02</ele>
        <time>2020-01-15T12:45:40Z</time>
      </trkpt>
      <trkpt lat="45.66141338087618" lon="10.378508633002639">
        <ele>351.5</ele>
        <time>2020-01-15T12:45:27Z</time>
      </trkpt>
      <trkpt lat="45.66153139807284" lon="10.378445852547884">
        <ele>351.02</ele>
        <time>2020-01-15T12:45:03Z</time>
      </trkpt>
      <trkpt lat="45.661576744169" lon="10.378418527543545">
        <ele>351.02</ele>
        <time>2020-01-15T12:44:59Z</time>
      </trkpt>
      <trkpt lat="45.661762319505215" lon="10.378119209781289">
        <ele>351.98</ele>
        <time>2020-01-15T12:44:34Z</time>
      </trkpt>
      <trkpt lat="45.66182853654027" lon="10.37802834995091">
        <ele>351.98</ele>
        <time>2020-01-15T12:44:26Z</time>
      </trkpt>
      <trkpt lat="45.662028109654784" lon="10.377921732142568">
        <ele>353.42</ele>
        <time>2020-01-15T12:44:07Z</time>
      </trkpt>
      <trkpt lat="45.66216138191521" lon="10.377893066033721">
        <ele>353.9</ele>
        <time>2020-01-15T12:43:49Z</time>
      </trkpt>
      <trkpt lat="45.66231091506779" lon="10.377778736874461">
        <ele>354.86</ele>
        <time>2020-01-15T12:43:28Z</time>
      </trkpt>
      <trkpt lat="45.662331031635404" lon="10.377759709954262">
        <ele>355.34</ele>
        <time>2020-01-15T12:43:26Z</time>
      </trkpt>
      <trkpt lat="45.66238861531019" lon="10.377721907570958">
        <ele>355.34</ele>
        <time>2020-01-15T12:43:21Z</time>
      </trkpt>
      <trkpt lat="45.662458101287484" lon="10.377651415765285">
        <ele>356.31</ele>
        <time>2020-01-15T12:43:13Z</time>
      </trkpt>
      <trkpt lat="45.66249162890017" lon="10.377637417986989">
        <ele>356.79</ele>
        <time>2020-01-15T12:43:10Z</time>
      </trkpt>
      <trkpt lat="45.66269287839532" lon="10.377658037468791">
        <ele>358.23</ele>
        <time>2020-01-15T12:42:48Z</time>
      </trkpt>
      <trkpt lat="45.66273068077862" lon="10.377673711627722">
        <ele>359.67</ele>
        <time>2020-01-15T12:42:44Z</time>
      </trkpt>
      <trkpt lat="45.662840316072106" lon="10.377769600600004">
        <ele>360.63</ele>
        <time>2020-01-15T12:42:24Z</time>
      </trkpt>
      <trkpt lat="45.662974677979946" lon="10.377919217571616">
        <ele>364.48</ele>
        <time>2020-01-15T12:42:09Z</time>
      </trkpt>
      <trkpt lat="45.66320400685072" lon="10.378011502325535">
        <ele>366.88</ele>
        <time>2020-01-15T12:41:49Z</time>
      </trkpt>
      <trkpt lat="45.663373405113816" lon="10.378024578094482">
        <ele>368.32</ele>
        <time>2020-01-15T12:41:31Z</time>
      </trkpt>
      <trkpt lat="45.663409028202295" lon="10.378034971654415">
        <ele>368.8</ele>
        <time>2020-01-15T12:41:29Z</time>
      </trkpt>
      <trkpt lat="45.66346853971481" lon="10.378049053251743">
        <ele>370.24</ele>
        <time>2020-01-15T12:41:21Z</time>
      </trkpt>
      <trkpt lat="45.66361363045871" lon="10.378111498430371">
        <ele>370.24</ele>
        <time>2020-01-15T12:41:03Z</time>
      </trkpt>
      <trkpt lat="45.66372066736221" lon="10.378106720745564">
        <ele>371.21</ele>
        <time>2020-01-15T12:40:45Z</time>
      </trkpt>
      <trkpt lat="45.66389341838658" lon="10.37823555059731">
        <ele>374.09</ele>
        <time>2020-01-15T12:40:27Z</time>
      </trkpt>
      <trkpt lat="45.664112186059356" lon="10.378146534785628">
        <ele>375.53</ele>
        <time>2020-01-15T12:40:07Z</time>
      </trkpt>
      <trkpt lat="45.66422869451344" lon="10.378098674118519">
        <ele>376.97</ele>
        <time>2020-01-15T12:39:47Z</time>
      </trkpt>
      <trkpt lat="45.66423489712179" lon="10.378088280558586">
        <ele>376.97</ele>
        <time>2020-01-15T12:39:46Z</time>
      </trkpt>
      <trkpt lat="45.66440471448004" lon="10.377803463488817">
        <ele>377.45</ele>
        <time>2020-01-15T12:39:23Z</time>
      </trkpt>
      <trkpt lat="45.664585679769516" lon="10.377663234248757">
        <ele>380.34</ele>
        <time>2020-01-15T12:39:03Z</time>
      </trkpt>
      <trkpt lat="45.664659440517426" lon="10.377548821270466">
        <ele>382.74</ele>
        <time>2020-01-15T12:38:44Z</time>
      </trkpt>
      <trkpt lat="45.6645967438817" lon="10.377486795186996">
        <ele>384.18</ele>
        <time>2020-01-15T12:38:38Z</time>
      </trkpt>
      <trkpt lat="45.66452968865633" lon="10.377387218177319">
        <ele>386.59</ele>
        <time>2020-01-15T12:38:26Z</time>
      </trkpt>
      <trkpt lat="45.66451535560191" lon="10.377375902608037">
        <ele>387.07</ele>
        <time>2020-01-15T12:38:24Z</time>
      </trkpt>
      <trkpt lat="45.66456388682127" lon="10.377240451052785">
        <ele>388.03</ele>
        <time>2020-01-15T12:38:07Z</time>
      </trkpt>
      <trkpt lat="45.66467268392444" lon="10.377210276201367">
        <ele>389.47</ele>
        <time>2020-01-15T12:37:57Z</time>
      </trkpt>
      <trkpt lat="45.66480436362326" lon="10.37714690901339">
        <ele>392.36</ele>
        <time>2020-01-15T12:37:42Z</time>
      </trkpt>
      <trkpt lat="45.66494358703494" lon="10.377066442742944">
        <ele>394.76</ele>
        <time>2020-01-15T12:37:27Z</time>
      </trkpt>
      <trkpt lat="45.665036207064986" lon="10.376884220167994">
        <ele>398.12</ele>
        <time>2020-01-15T12:37:07Z</time>
      </trkpt>
      <trkpt lat="45.665095215663314" lon="10.376684898510575">
        <ele>401.01</ele>
        <time>2020-01-15T12:36:52Z</time>
      </trkpt>
      <trkpt lat="45.66500309854746" lon="10.376541400328279">
        <ele>404.37</ele>
        <time>2020-01-15T12:36:39Z</time>
      </trkpt>
      <trkpt lat="45.664934031665325" lon="10.376496138051152">
        <ele>407.74</ele>
        <time>2020-01-15T12:36:25Z</time>
      </trkpt>
      <trkpt lat="45.66485649906099" lon="10.376492282375693">
        <ele>409.18</ele>
        <time>2020-01-15T12:36:03Z</time>
      </trkpt>
      <trkpt lat="45.66485356539488" lon="10.376309724524617">
        <ele>412.54</ele>
        <time>2020-01-15T12:35:48Z</time>
      </trkpt>
      <trkpt lat="45.66494895145297" lon="10.376201933249831">
        <ele>415.91</ele>
        <time>2020-01-15T12:35:34Z</time>
      </trkpt>
      <trkpt lat="45.66509270109236" lon="10.37603865377605">
        <ele>418.79</ele>
        <time>2020-01-15T12:35:13Z</time>
      </trkpt>
      <trkpt lat="45.66509638912976" lon="10.375919714570045">
        <ele>422.16</ele>
        <time>2020-01-15T12:34:56Z</time>
      </trkpt>
      <trkpt lat="45.66493193618953" lon="10.375907141715288">
        <ele>425.04</ele>
        <time>2020-01-15T12:34:37Z</time>
      </trkpt>
      <trkpt lat="45.66491425037384" lon="10.375870177522302">
        <ele>425.52</ele>
        <time>2020-01-15T12:34:33Z</time>
      </trkpt>
      <trkpt lat="45.66498004831374" lon="10.37568049505353">
        <ele>428.4</ele>
        <time>2020-01-15T12:34:15Z</time>
      </trkpt>
      <trkpt lat="45.66507979296148" lon="10.375497434288263">
        <ele>430.81</ele>
        <time>2020-01-15T12:34:00Z</time>
      </trkpt>
      <trkpt lat="45.66510577686131" lon="10.375432055443525">
        <ele>432.25</ele>
        <time>2020-01-15T12:33:56Z</time>
      </trkpt>
      <trkpt lat="45.665143160149455" lon="10.3753159660846">
        <ele>435.13</ele>
        <time>2020-01-15T12:33:44Z</time>
      </trkpt>
      <trkpt lat="45.66519211046398" lon="10.375132150948048">
        <ele>438.5</ele>
        <time>2020-01-15T12:33:28Z</time>
      </trkpt>
      <trkpt lat="45.66526268608868" lon="10.374954286962748">
        <ele>441.38</ele>
        <time>2020-01-15T12:33:10Z</time>
      </trkpt>
      <trkpt lat="45.665357653051615" lon="10.374750941991806">
        <ele>442.82</ele>
        <time>2020-01-15T12:32:52Z</time>
      </trkpt>
      <trkpt lat="45.665381625294685" lon="10.374728478491306">
        <ele>443.79</ele>
        <time>2020-01-15T12:32:49Z</time>
      </trkpt>
      <trkpt lat="45.66539159975946" lon="10.374643485993147">
        <ele>443.31</ele>
        <time>2020-01-15T12:32:41Z</time>
      </trkpt>
      <trkpt lat="45.665506683290005" lon="10.374337211251259">
        <ele>445.71</ele>
        <time>2020-01-15T12:32:20Z</time>
      </trkpt>
      <trkpt lat="45.6655640155077" lon="10.374044012278318">
        <ele>447.15</ele>
        <time>2020-01-15T12:31:59Z</time>
      </trkpt>
      <trkpt lat="45.66557625308633" lon="10.373780149966478">
        <ele>450.03</ele>
        <time>2020-01-15T12:31:40Z</time>
      </trkpt>
      <trkpt lat="45.665607852861285" lon="10.373642854392529">
        <ele>451.0</ele>
        <time>2020-01-15T12:31:23Z</time>
      </trkpt>
      <trkpt lat="45.66563257947564" lon="10.373375304043293">
        <ele>452.44</ele>
        <time>2020-01-15T12:31:03Z</time>
      </trkpt>
      <trkpt lat="45.66568630747497" lon="10.373165672644973">
        <ele>453.88</ele>
        <time>2020-01-15T12:30:45Z</time>
      </trkpt>
      <trkpt lat="45.66569200716913" lon="10.373144885525107">
        <ele>453.4</ele>
        <time>2020-01-15T12:30:43Z</time>
      </trkpt>
      <trkpt lat="45.66576627083123" lon="10.372893176972866">
        <ele>454.84</ele>
        <time>2020-01-15T12:30:25Z</time>
      </trkpt>
      <trkpt lat="45.66586744040251" lon="10.37270961329341">
        <ele>457.72</ele>
        <time>2020-01-15T12:30:09Z</time>
      </trkpt>
      <trkpt lat="45.66597171127796" lon="10.372518757358193">
        <ele>460.61</ele>
        <time>2020-01-15T12:29:53Z</time>
      </trkpt>
      <trkpt lat="45.66611923277378" lon="10.372263612225652">
        <ele>463.01</ele>
        <time>2020-01-15T12:29:33Z</time>
      </trkpt>
      <trkpt lat="45.66620958968997" lon="10.372098237276077">
        <ele>466.86</ele>
        <time>2020-01-15T12:29:17Z</time>
      </trkpt>
      <trkpt lat="45.66627949476242" lon="10.371989607810974">
        <ele>469.26</ele>
        <time>2020-01-15T12:29:00Z</time>
      </trkpt>
      <trkpt lat="45.666267927736044" lon="10.371938729658723">
        <ele>469.74</ele>
        <time>2020-01-15T12:28:27Z</time>
      </trkpt>
      <trkpt lat="45.6662960909307" lon="10.371998157352209">
        <ele>469.26</ele>
        <time>2020-01-15T12:28:03Z</time>
      </trkpt>
      <trkpt lat="45.6664221547544" lon="10.371729349717498">
        <ele>470.7</ele>
        <time>2020-01-15T12:27:40Z</time>
      </trkpt>
      <trkpt lat="45.666531370952725" lon="10.371517455205321">
        <ele>471.66</ele>
        <time>2020-01-15T12:27:24Z</time>
      </trkpt>
      <trkpt lat="45.66653648391366" lon="10.371241942048073">
        <ele>474.55</ele>
        <time>2020-01-15T12:27:05Z</time>
      </trkpt>
      <trkpt lat="45.66658032126725" lon="10.371065670624375">
        <ele>476.47</ele>
        <time>2020-01-15T12:26:51Z</time>
      </trkpt>
      <trkpt lat="45.66667671315372" lon="10.37070432677865">
        <ele>476.47</ele>
        <time>2020-01-15T12:26:30Z</time>
      </trkpt>
      <trkpt lat="45.666734129190445" lon="10.370407775044441">
        <ele>478.39</ele>
        <time>2020-01-15T12:26:10Z</time>
      </trkpt>
      <trkpt lat="45.6668143440038" lon="10.370094291865826">
        <ele>479.35</ele>
        <time>2020-01-15T12:25:49Z</time>
      </trkpt>
      <trkpt lat="45.6668436806649" lon="10.369953475892544">
        <ele>480.32</ele>
        <time>2020-01-15T12:25:37Z</time>
      </trkpt>
      <trkpt lat="45.66686388105154" lon="10.369753986597061">
        <ele>482.72</ele>
        <time>2020-01-15T12:25:19Z</time>
      </trkpt>
      <trkpt lat="45.666974103078246" lon="10.369586013257504">
        <ele>485.6</ele>
        <time>2020-01-15T12:24:58Z</time>
      </trkpt>
      <trkpt lat="45.66711240448058" lon="10.3693893738091">
        <ele>487.53</ele>
        <time>2020-01-15T12:24:39Z</time>
      </trkpt>
      <trkpt lat="45.66719278693199" lon="10.369270350784063">
        <ele>487.53</ele>
        <time>2020-01-15T12:24:29Z</time>
      </trkpt>
      <trkpt lat="45.667387498542666" lon="10.369124924764037">
        <ele>488.01</ele>
        <time>2020-01-15T12:24:09Z</time>
      </trkpt>
      <trkpt lat="45.667482214048505" lon="10.369078908115625">
        <ele>487.53</ele>
        <time>2020-01-15T12:23:57Z</time>
      </trkpt>
      <trkpt lat="45.66762009635568" lon="10.36893934942782">
        <ele>487.53</ele>
        <time>2020-01-15T12:23:42Z</time>
      </trkpt>
      <trkpt lat="45.66763250157237" lon="10.36892568692565">
        <ele>488.01</ele>
        <time>2020-01-15T12:23:40Z</time>
      </trkpt>
      <trkpt lat="45.66771833226085" lon="10.368838934227824">
        <ele>487.53</ele>
        <time>2020-01-15T12:23:31Z</time>
      </trkpt>
      <trkpt lat="45.66777574829757" lon="10.368797779083252">
        <ele>488.01</ele>
        <time>2020-01-15T12:23:22Z</time>
      </trkpt>
      <trkpt lat="45.66791446879506" lon="10.368588902056217">
        <ele>488.49</ele>
        <time>2020-01-15T12:23:04Z</time>
      </trkpt>
      <trkpt lat="45.667979680001736" lon="10.368362506851554">
        <ele>489.45</ele>
        <time>2020-01-15T12:22:48Z</time>
      </trkpt>
      <trkpt lat="45.66799099557102" lon="10.368348257616162">
        <ele>489.45</ele>
        <time>2020-01-15T12:22:47Z</time>
      </trkpt>
      <trkpt lat="45.66807598806918" lon="10.368154468014836">
        <ele>489.93</ele>
        <time>2020-01-15T12:22:29Z</time>
      </trkpt>
      <trkpt lat="45.66820716485381" lon="10.367935616523027">
        <ele>490.89</ele>
        <time>2020-01-15T12:22:10Z</time>
      </trkpt>
      <trkpt lat="45.66821102052927" lon="10.367925809696317">
        <ele>490.89</ele>
        <time>2020-01-15T12:22:08Z</time>
      </trkpt>
      <trkpt lat="45.66837807185948" lon="10.367750208824873">
        <ele>491.37</ele>
        <time>2020-01-15T12:21:51Z</time>
      </trkpt>
      <trkpt lat="45.66855442710221" lon="10.36766312085092">
        <ele>492.81</ele>
        <time>2020-01-15T12:21:33Z</time>
      </trkpt>
      <trkpt lat="45.668690549209714" lon="10.36762598901987">
        <ele>496.18</ele>
        <time>2020-01-15T12:21:20Z</time>
      </trkpt>
      <trkpt lat="45.66877637989819" lon="10.367507385089993">
        <ele>496.18</ele>
        <time>2020-01-15T12:21:08Z</time>
      </trkpt>
      <trkpt lat="45.66887360997498" lon="10.367271350696683">
        <ele>495.7</ele>
        <time>2020-01-15T12:20:50Z</time>
      </trkpt>
      <trkpt lat="45.66887981258333" lon="10.367260118946433">
        <ele>496.66</ele>
        <time>2020-01-15T12:20:49Z</time>
      </trkpt>
      <trkpt lat="45.668983748182654" lon="10.367065910249949">
        <ele>497.14</ele>
        <time>2020-01-15T12:20:29Z</time>
      </trkpt>
      <trkpt lat="45.66911928355694" lon="10.36694185808301">
        <ele>496.66</ele>
        <time>2020-01-15T12:20:11Z</time>
      </trkpt>
      <trkpt lat="45.66934157162905" lon="10.366885783150792">
        <ele>496.18</ele>
        <time>2020-01-15T12:19:51Z</time>
      </trkpt>
      <trkpt lat="45.66961574368179" lon="10.366821493953466">
        <ele>496.18</ele>
        <time>2020-01-15T12:19:32Z</time>
      </trkpt>
      <trkpt lat="45.669745579361916" lon="10.366745134815574">
        <ele>496.18</ele>
        <time>2020-01-15T12:19:16Z</time>
      </trkpt>
      <trkpt lat="45.66989812999964" lon="10.366512034088373">
        <ele>497.62</ele>
        <time>2020-01-15T12:18:56Z</time>
      </trkpt>
      <trkpt lat="45.669954204931855" lon="10.366252362728119">
        <ele>500.02</ele>
        <time>2020-01-15T12:18:36Z</time>
      </trkpt>
      <trkpt lat="45.67010038532317" lon="10.366036361083388">
        <ele>500.02</ele>
        <time>2020-01-15T12:18:18Z</time>
      </trkpt>
      <trkpt lat="45.67021337337792" lon="10.365937454625964">
        <ele>501.95</ele>
        <time>2020-01-15T12:18:02Z</time>
      </trkpt>
      <trkpt lat="45.67038981243968" lon="10.3657559864223">
        <ele>502.91</ele>
        <time>2020-01-15T12:17:43Z</time>
      </trkpt>
      <trkpt lat="45.67040691152215" lon="10.36559522151947">
        <ele>505.79</ele>
        <time>2020-01-15T12:17:26Z</time>
      </trkpt>
      <trkpt lat="45.67050070501864" lon="10.365439904853702">
        <ele>507.71</ele>
        <time>2020-01-15T12:17:07Z</time>
      </trkpt>
      <trkpt lat="45.670551750808954" lon="10.365395145490766">
        <ele>511.08</ele>
        <time>2020-01-15T12:16:53Z</time>
      </trkpt>
      <trkpt lat="45.670581087470055" lon="10.365263633430004">
        <ele>512.04</ele>
        <time>2020-01-15T12:16:33Z</time>
      </trkpt>
      <trkpt lat="45.670670019462705" lon="10.365151818841696">
        <ele>512.52</ele>
        <time>2020-01-15T12:16:07Z</time>
      </trkpt>
      <trkpt lat="45.67074755206704" lon="10.364866582676768">
        <ele>514.44</ele>
        <time>2020-01-15T12:15:50Z</time>
      </trkpt>
      <trkpt lat="45.670818043872714" lon="10.364645132794976">
        <ele>514.92</ele>
        <time>2020-01-15T12:15:34Z</time>
      </trkpt>
      <trkpt lat="45.670853750780225" lon="10.364448660984635">
        <ele>517.81</ele>
        <time>2020-01-15T12:15:16Z</time>
      </trkpt>
      <trkpt lat="45.670922147110105" lon="10.364222098141909">
        <ele>519.25</ele>
        <time>2020-01-15T12:14:57Z</time>
      </trkpt>
      <trkpt lat="45.67096539773047" lon="10.364063763990998">
        <ele>521.65</ele>
        <time>2020-01-15T12:14:40Z</time>
      </trkpt>
      <trkpt lat="45.67114753648639" lon="10.364005761221051">
        <ele>524.54</ele>
        <time>2020-01-15T12:14:21Z</time>
      </trkpt>
      <trkpt lat="45.67130880430341" lon="10.363966701552272">
        <ele>525.98</ele>
        <time>2020-01-15T12:14:06Z</time>
      </trkpt>
      <trkpt lat="45.67146856337786" lon="10.364041719585657">
        <ele>527.9</ele>
        <time>2020-01-15T12:13:46Z</time>
      </trkpt>
      <trkpt lat="45.671635614708066" lon="10.364053957164288">
        <ele>531.27</ele>
        <time>2020-01-15T12:13:28Z</time>
      </trkpt>
      <trkpt lat="45.67170761525631" lon="10.364116821438074">
        <ele>535.11</ele>
        <time>2020-01-15T12:13:15Z</time>
      </trkpt>
      <trkpt lat="45.671816328540444" lon="10.364023027941585">
        <ele>537.99</ele>
        <time>2020-01-15T12:12:58Z</time>
      </trkpt>
      <trkpt lat="45.67196334712207" lon="10.364098967984319">
        <ele>541.36</ele>
        <time>2020-01-15T12:12:40Z</time>
      </trkpt>
      <trkpt lat="45.67206527106464" lon="10.364176500588655">
        <ele>543.28</ele>
        <time>2020-01-15T12:12:29Z</time>
      </trkpt>
      <trkpt lat="45.67226174287498" lon="10.364201059564948">
        <ele>542.8</ele>
        <time>2020-01-15T12:12:12Z</time>
      </trkpt>
      <trkpt lat="45.67231899127364" lon="10.364183373749256">
        <ele>542.8</ele>
        <time>2020-01-15T12:12:06Z</time>
      </trkpt>
      <trkpt lat="45.67235687747598" lon="10.364170717075467">
        <ele>541.36</ele>
        <time>2020-01-15T12:12:03Z</time>
      </trkpt>
      <trkpt lat="45.672438433393836" lon="10.36415127106011">
        <ele>542.32</ele>
        <time>2020-01-15T12:11:54Z</time>
      </trkpt>
      <trkpt lat="45.67259802483022" lon="10.364192007109523">
        <ele>541.84</ele>
        <time>2020-01-15T12:11:39Z</time>
      </trkpt>
      <trkpt lat="45.6727044750005" lon="10.364232826977968">
        <ele>542.8</ele>
        <time>2020-01-15T12:11:28Z</time>
      </trkpt>
      <trkpt lat="45.672776475548744" lon="10.364228216931224">
        <ele>542.8</ele>
        <time>2020-01-15T12:11:21Z</time>
      </trkpt>
      <trkpt lat="45.67281385883689" lon="10.364228216931224">
        <ele>542.8</ele>
        <time>2020-01-15T12:11:18Z</time>
      </trkpt>
      <trkpt lat="45.672969007864594" lon="10.364166693761945">
        <ele>545.69</ele>
        <time>2020-01-15T12:11:01Z</time>
      </trkpt>
      <trkpt lat="45.67310605198145" lon="10.364126795902848">
        <ele>546.17</ele>
        <time>2020-01-15T12:10:45Z</time>
      </trkpt>
      <trkpt lat="45.67317042499781" lon="10.364089664071798">
        <ele>546.17</ele>
        <time>2020-01-15T12:10:36Z</time>
      </trkpt>
      <trkpt lat="45.673345271497965" lon="10.364074157550931">
        <ele>546.65</ele>
        <time>2020-01-15T12:10:21Z</time>
      </trkpt>
      <trkpt lat="45.6733781285584" lon="10.364044904708862">
        <ele>546.17</ele>
        <time>2020-01-15T12:10:16Z</time>
      </trkpt>
      <trkpt lat="45.673526069149375" lon="10.363957900553942">
        <ele>546.17</ele>
        <time>2020-01-15T12:09:59Z</time>
      </trkpt>
      <trkpt lat="45.67358356900513" lon="10.363906938582659">
        <ele>547.61</ele>
        <time>2020-01-15T12:09:41Z</time>
      </trkpt>
      <trkpt lat="45.67358918488026" lon="10.363888246938586">
        <ele>547.13</ele>
        <time>2020-01-15T12:09:07Z</time>
      </trkpt>
      <trkpt lat="45.67371038720012" lon="10.363948429003358">
        <ele>547.13</ele>
        <time>2020-01-15T12:08:22Z</time>
      </trkpt>
      <trkpt lat="45.67396016791463" lon="10.36400768905878">
        <ele>551.45</ele>
        <time>2020-01-15T11:47:14Z</time>
      </trkpt>
      <trkpt lat="45.673983385786414" lon="10.364010706543922">
        <ele>551.45</ele>
        <time>2020-01-15T11:47:12Z</time>
      </trkpt>
      <trkpt lat="45.67414004355669" lon="10.364020094275475">
        <ele>553.38</ele>
        <time>2020-01-15T11:46:56Z</time>
      </trkpt>
      <trkpt lat="45.674151442945" lon="10.364021016284823">
        <ele>553.86</ele>
        <time>2020-01-15T11:46:55Z</time>
      </trkpt>
      <trkpt lat="45.67432343959808" lon="10.364095363765955">
        <ele>552.9</ele>
        <time>2020-01-15T11:46:34Z</time>
      </trkpt>
      <trkpt lat="45.67437012679875" lon="10.36409754306078">
        <ele>553.38</ele>
        <time>2020-01-15T11:46:29Z</time>
      </trkpt>
      <trkpt lat="45.67455402575433" lon="10.364047922194004">
        <ele>552.41</ele>
        <time>2020-01-15T11:46:09Z</time>
      </trkpt>
      <trkpt lat="45.67455838434398" lon="10.364045156165957">
        <ele>551.45</ele>
        <time>2020-01-15T11:46:08Z</time>
      </trkpt>
      <trkpt lat="45.674745636060834" lon="10.363896461203694">
        <ele>549.53</ele>
        <time>2020-01-15T11:45:48Z</time>
      </trkpt>
      <trkpt lat="45.67494277842343" lon="10.363762602210045">
        <ele>549.53</ele>
        <time>2020-01-15T11:45:32Z</time>
      </trkpt>
      <trkpt lat="45.67507294937968" lon="10.363724129274487">
        <ele>549.05</ele>
        <time>2020-01-15T11:45:19Z</time>
      </trkpt>
      <trkpt lat="45.6752532441169" lon="10.363726979121566">
        <ele>549.05</ele>
        <time>2020-01-15T11:45:01Z</time>
      </trkpt>
      <trkpt lat="45.67545642144978" lon="10.363763188943267">
        <ele>548.57</ele>
        <time>2020-01-15T11:44:44Z</time>
      </trkpt>
      <trkpt lat="45.67548952996731" lon="10.36376335658133">
        <ele>550.01</ele>
        <time>2020-01-15T11:44:39Z</time>
      </trkpt>
      <trkpt lat="45.6755796354264" lon="10.363778863102198">
        <ele>550.01</ele>
        <time>2020-01-15T11:44:30Z</time>
      </trkpt>
      <trkpt lat="45.67568591795862" lon="10.363746173679829">
        <ele>550.97</ele>
        <time>2020-01-15T11:44:21Z</time>
      </trkpt>
      <trkpt lat="45.675827572122216" lon="10.363723877817392">
        <ele>552.41</ele>
        <time>2020-01-15T11:44:06Z</time>
      </trkpt>
      <trkpt lat="45.67592488601804" lon="10.3636509552598">
        <ele>553.86</ele>
        <time>2020-01-15T11:43:52Z</time>
      </trkpt>
      <trkpt lat="45.676046842709184" lon="10.36350628361106">
        <ele>556.74</ele>
        <time>2020-01-15T11:43:34Z</time>
      </trkpt>
      <trkpt lat="45.67623803392053" lon="10.363316684961319">
        <ele>559.62</ele>
        <time>2020-01-15T11:43:14Z</time>
      </trkpt>
      <trkpt lat="45.67625286988914" lon="10.363293634727597">
        <ele>559.62</ele>
        <time>2020-01-15T11:43:12Z</time>
      </trkpt>
      <trkpt lat="45.676345489919186" lon="10.363237140700221">
        <ele>560.59</ele>
        <time>2020-01-15T11:42:53Z</time>
      </trkpt>
      <trkpt lat="45.676518408581614" lon="10.363170001655817">
        <ele>562.99</ele>
        <time>2020-01-15T11:42:37Z</time>
      </trkpt>
      <trkpt lat="45.6766624096781" lon="10.363072352483869">
        <ele>565.87</ele>
        <time>2020-01-15T11:42:22Z</time>
      </trkpt>
      <trkpt lat="45.67673759534955" lon="10.363074950873852">
        <ele>566.35</ele>
        <time>2020-01-15T11:42:12Z</time>
      </trkpt>
      <trkpt lat="45.67680456675589" lon="10.36305919289589">
        <ele>568.76</ele>
        <time>2020-01-15T11:41:58Z</time>
      </trkpt>
      <trkpt lat="45.676886877045035" lon="10.363095989450812">
        <ele>571.16</ele>
        <time>2020-01-15T11:41:07Z</time>
      </trkpt>
      <trkpt lat="45.67699617706239" lon="10.36315256729722">
        <ele>570.2</ele>
        <time>2020-01-15T11:40:46Z</time>
      </trkpt>
      <trkpt lat="45.67706800997257" lon="10.363217359408736">
        <ele>570.2</ele>
        <time>2020-01-15T11:40:38Z</time>
      </trkpt>
      <trkpt lat="45.67708703689277" lon="10.36323412321508">
        <ele>570.2</ele>
        <time>2020-01-15T11:40:36Z</time>
      </trkpt>
      <trkpt lat="45.677139926701784" lon="10.363233368843794">
        <ele>570.68</ele>
        <time>2020-01-15T11:40:30Z</time>
      </trkpt>
      <trkpt lat="45.67721729166806" lon="10.36324049346149">
        <ele>571.64</ele>
        <time>2020-01-15T11:40:23Z</time>
      </trkpt>
      <trkpt lat="45.677241599187255" lon="10.36327670328319">
        <ele>571.64</ele>
        <time>2020-01-15T11:40:13Z</time>
      </trkpt>
      <trkpt lat="45.67728451453149" lon="10.363495973870158">
        <ele>571.16</ele>
        <time>2020-01-15T11:39:55Z</time>
      </trkpt>
      <trkpt lat="45.67728568799794" lon="10.363546181470156">
        <ele>571.64</ele>
        <time>2020-01-15T11:39:53Z</time>
      </trkpt>
      <trkpt lat="45.677273366600275" lon="10.363665204495192">
        <ele>572.12</ele>
        <time>2020-01-15T11:39:43Z</time>
      </trkpt>
      <trkpt lat="45.67727596499026" lon="10.363714070990682">
        <ele>573.08</ele>
        <time>2020-01-15T11:39:40Z</time>
      </trkpt>
      <trkpt lat="45.67727403715253" lon="10.363789005205035">
        <ele>573.08</ele>
        <time>2020-01-15T11:39:36Z</time>
      </trkpt>
      <trkpt lat="45.6772739533335" lon="10.363802164793015">
        <ele>574.04</ele>
        <time>2020-01-15T11:39:35Z</time>
      </trkpt>
      <trkpt lat="45.67731955088675" lon="10.363863939419389">
        <ele>573.56</ele>
        <time>2020-01-15T11:39:15Z</time>
      </trkpt>
      <trkpt lat="45.67732583731413" lon="10.36386787891388">
        <ele>574.04</ele>
        <time>2020-01-15T11:39:11Z</time>
      </trkpt>
      <trkpt lat="45.677333045750856" lon="10.363879445940256">
        <ele>572.6</ele>
        <time>2020-01-15T11:39:09Z</time>
      </trkpt>
      <trkpt lat="45.677355928346515" lon="10.363949853926897">
        <ele>574.04</ele>
        <time>2020-01-15T11:39:04Z</time>
      </trkpt>
      <trkpt lat="45.67738191224635" lon="10.363998552784324">
        <ele>576.45</ele>
        <time>2020-01-15T11:38:57Z</time>
      </trkpt>
      <trkpt lat="45.67745349369943" lon="10.36400768905878">
        <ele>579.33</ele>
        <time>2020-01-15T11:38:45Z</time>
      </trkpt>
      <trkpt lat="45.67744553089142" lon="10.364006515592337">
        <ele>579.33</ele>
        <time>2020-01-15T11:38:42Z</time>
      </trkpt>
      <trkpt lat="45.67749825306237" lon="10.36406091414392">
        <ele>580.29</ele>
        <time>2020-01-15T11:38:19Z</time>
      </trkpt>
      <trkpt lat="45.67750479094684" lon="10.364072229713202">
        <ele>581.25</ele>
        <time>2020-01-15T11:38:17Z</time>
      </trkpt>
      <trkpt lat="45.67752281203866" lon="10.364099219441414">
        <ele>581.25</ele>
        <time>2020-01-15T11:38:05Z</time>
      </trkpt>
      <trkpt lat="45.67757897078991" lon="10.36419385112822">
        <ele>583.66</ele>
        <time>2020-01-15T11:37:50Z</time>
      </trkpt>
      <trkpt lat="45.677642757073045" lon="10.364311030134559">
        <ele>586.06</ele>
        <time>2020-01-15T11:37:35Z</time>
      </trkpt>
      <trkpt lat="45.677706291899085" lon="10.364337433129549">
        <ele>588.46</ele>
        <time>2020-01-15T11:37:28Z</time>
      </trkpt>
      <trkpt lat="45.67778617143631" lon="10.36430960521102">
        <ele>589.91</ele>
        <time>2020-01-15T11:37:17Z</time>
      </trkpt>
      <trkpt lat="45.67792690359056" lon="10.364262582734227">
        <ele>592.79</ele>
        <time>2020-01-15T11:37:01Z</time>
      </trkpt>
      <trkpt lat="45.67810242064297" lon="10.364162167534232">
        <ele>595.67</ele>
        <time>2020-01-15T11:36:45Z</time>
      </trkpt>
      <trkpt lat="45.678270142525434" lon="10.364064266905189">
        <ele>597.12</ele>
        <time>2020-01-15T11:36:29Z</time>
      </trkpt>
      <trkpt lat="45.6782978028059" lon="10.364019256085157">
        <ele>597.12</ele>
        <time>2020-01-15T11:36:26Z</time>
      </trkpt>
      <trkpt lat="45.67840081639588" lon="10.363936610519886">
        <ele>597.6</ele>
        <time>2020-01-15T11:36:18Z</time>
      </trkpt>
      <trkpt lat="45.67855831235647" lon="10.363866789266467">
        <ele>600.0</ele>
        <time>2020-01-15T11:36:01Z</time>
      </trkpt>
      <trkpt lat="45.67860600538552" lon="10.36383024416864">
        <ele>600.48</ele>
        <time>2020-01-15T11:35:55Z</time>
      </trkpt>
      <trkpt lat="45.678624445572495" lon="10.363777773454785">
        <ele>600.0</ele>
        <time>2020-01-15T11:35:23Z</time>
      </trkpt>
      <trkpt lat="45.67864313721657" lon="10.363772073760629">
        <ele>601.92</ele>
        <time>2020-01-15T11:34:40Z</time>
      </trkpt>
      <trkpt lat="45.67867356352508" lon="10.363792357966304">
        <ele>600.48</ele>
        <time>2020-01-15T11:34:27Z</time>
      </trkpt>
      <trkpt lat="45.678696781396866" lon="10.363782467320561">
        <ele>600.96</ele>
        <time>2020-01-15T11:34:24Z</time>
      </trkpt>
      <trkpt lat="45.67876333370805" lon="10.36376235075295">
        <ele>600.0</ele>
        <time>2020-01-15T11:34:17Z</time>
      </trkpt>
      <trkpt lat="45.6789471488446" lon="10.363796632736921">
        <ele>601.44</ele>
        <time>2020-01-15T11:33:59Z</time>
      </trkpt>
      <trkpt lat="45.679027028381824" lon="10.363813396543264">
        <ele>603.36</ele>
        <time>2020-01-15T11:33:52Z</time>
      </trkpt>
      <trkpt lat="45.67906441166997" lon="10.363830663263798">
        <ele>602.88</ele>
        <time>2020-01-15T11:33:47Z</time>
      </trkpt>
      <trkpt lat="45.679116463288665" lon="10.3638615924865">
        <ele>602.4</ele>
        <time>2020-01-15T11:33:43Z</time>
      </trkpt>
      <trkpt lat="45.67921293899417" lon="10.36395639181137">
        <ele>601.92</ele>
        <time>2020-01-15T11:33:35Z</time>
      </trkpt>
      <trkpt lat="45.67932575941086" lon="10.364110367372632">
        <ele>603.85</ele>
        <time>2020-01-15T11:33:18Z</time>
      </trkpt>
      <trkpt lat="45.679358365014195" lon="10.364166526123881">
        <ele>604.33</ele>
        <time>2020-01-15T11:33:14Z</time>
      </trkpt>
      <trkpt lat="45.67936448380351" lon="10.364178428426385">
        <ele>604.33</ele>
        <time>2020-01-15T11:33:13Z</time>
      </trkpt>
      <trkpt lat="45.67943145520985" lon="10.364257888868451">
        <ele>605.77</ele>
        <time>2020-01-15T11:32:59Z</time>
      </trkpt>
      <trkpt lat="45.679536145180464" lon="10.364399626851082">
        <ele>607.69</ele>
        <time>2020-01-15T11:32:48Z</time>
      </trkpt>
      <trkpt lat="45.67957017570734" lon="10.364421084523201">
        <ele>606.73</ele>
        <time>2020-01-15T11:32:43Z</time>
      </trkpt>
      <trkpt lat="45.67958442494273" lon="10.364421335980296">
        <ele>606.25</ele>
        <time>2020-01-15T11:32:41Z</time>
      </trkpt>
      <trkpt lat="45.679714092984796" lon="10.36447430960834">
        <ele>608.65</ele>
        <time>2020-01-15T11:32:25Z</time>
      </trkpt>
      <trkpt lat="45.67984267137945" lon="10.364484200254083">
        <ele>607.69</ele>
        <time>2020-01-15T11:32:08Z</time>
      </trkpt>
      <trkpt lat="45.680020954459906" lon="10.36448746919632">
        <ele>609.61</ele>
        <time>2020-01-15T11:31:52Z</time>
      </trkpt>
      <trkpt lat="45.6801403965801" lon="10.364469280466437">
        <ele>610.57</ele>
        <time>2020-01-15T11:31:35Z</time>
      </trkpt>
      <trkpt lat="45.68020133301616" lon="10.364448577165604">
        <ele>612.02</ele>
        <time>2020-01-15T11:31:29Z</time>
      </trkpt>
      <trkpt lat="45.68028297275305" lon="10.364448074251413">
        <ele>612.98</ele>
        <time>2020-01-15T11:31:21Z</time>
      </trkpt>
      <trkpt lat="45.680454298853874" lon="10.364551339298487">
        <ele>616.34</ele>
        <time>2020-01-15T11:31:00Z</time>
      </trkpt>
      <trkpt lat="45.68056468851864" lon="10.364668350666761">
        <ele>618.26</ele>
        <time>2020-01-15T11:30:44Z</time>
      </trkpt>
      <trkpt lat="45.68069159053266" lon="10.364755103364587">
        <ele>620.19</ele>
        <time>2020-01-15T11:30:26Z</time>
      </trkpt>
      <trkpt lat="45.680820755660534" lon="10.364840850234032">
        <ele>623.07</ele>
        <time>2020-01-15T11:30:10Z</time>
      </trkpt>
      <trkpt lat="45.680835926905274" lon="10.364849902689457">
        <ele>623.07</ele>
        <time>2020-01-15T11:30:08Z</time>
      </trkpt>
      <trkpt lat="45.68088755942881" lon="10.364858452230692">
        <ele>624.99</ele>
        <time>2020-01-15T11:29:58Z</time>
      </trkpt>
      <trkpt lat="45.680972216650844" lon="10.364899942651391">
        <ele>626.92</ele>
        <time>2020-01-15T11:29:42Z</time>
      </trkpt>
      <trkpt lat="45.6811211630702" lon="10.36509683355689">
        <ele>632.2</ele>
        <time>2020-01-15T11:23:58Z</time>
      </trkpt>
      <trkpt lat="45.68110657855868" lon="10.365287605673075">
        <ele>633.65</ele>
        <time>2020-01-15T11:23:44Z</time>
      </trkpt>
      <trkpt lat="45.68113071843982" lon="10.365423141047359">
        <ele>635.09</ele>
        <time>2020-01-15T11:23:29Z</time>
      </trkpt>
      <trkpt lat="45.68120556883514" lon="10.365479467436671">
        <ele>637.49</ele>
        <time>2020-01-15T11:23:19Z</time>
      </trkpt>
      <trkpt lat="45.68133800290525" lon="10.365711394697428">
        <ele>639.41</ele>
        <time>2020-01-15T11:22:58Z</time>
      </trkpt>
      <trkpt lat="45.68138779141009" lon="10.365858748555183">
        <ele>640.86</ele>
        <time>2020-01-15T11:22:47Z</time>
      </trkpt>
      <trkpt lat="45.68139080889523" lon="10.365908285602927">
        <ele>640.86</ele>
        <time>2020-01-15T11:22:44Z</time>
      </trkpt>
      <trkpt lat="45.68144881166518" lon="10.366082042455673">
        <ele>642.3</ele>
        <time>2020-01-15T11:22:32Z</time>
      </trkpt>
      <trkpt lat="45.68152072839439" lon="10.366295361891389">
        <ele>643.26</ele>
        <time>2020-01-15T11:22:18Z</time>
      </trkpt>
      <trkpt lat="45.6815374083817" lon="10.366351688280702">
        <ele>643.74</ele>
        <time>2020-01-15T11:22:15Z</time>
      </trkpt>
      <trkpt lat="45.681581664830446" lon="10.36656173877418">
        <ele>646.62</ele>
        <time>2020-01-15T11:21:58Z</time>
      </trkpt>
      <trkpt lat="45.68159113638103" lon="10.366731639951468">
        <ele>649.99</ele>
        <time>2020-01-15T11:21:43Z</time>
      </trkpt>
      <trkpt lat="45.68164880387485" lon="10.366914281621575">
        <ele>651.91</ele>
        <time>2020-01-15T11:21:28Z</time>
      </trkpt>
      <trkpt lat="45.68176472559571" lon="10.367010589689016">
        <ele>653.83</ele>
        <time>2020-01-15T11:21:15Z</time>
      </trkpt>
      <trkpt lat="45.68184267729521" lon="10.367080410942435">
        <ele>654.8</ele>
        <time>2020-01-15T11:21:05Z</time>
      </trkpt>
      <trkpt lat="45.681991120800376" lon="10.36722483113408">
        <ele>655.28</ele>
        <time>2020-01-15T11:20:49Z</time>
      </trkpt>
      <trkpt lat="45.68202682770789" lon="10.367264058440924">
        <ele>655.28</ele>
        <time>2020-01-15T11:20:45Z</time>
      </trkpt>
      <trkpt lat="45.682200249284506" lon="10.36741434596479">
        <ele>656.24</ele>
        <time>2020-01-15T11:20:28Z</time>
      </trkpt>
      <trkpt lat="45.68228239193559" lon="10.367516437545419">
        <ele>657.2</ele>
        <time>2020-01-15T11:20:19Z</time>
      </trkpt>
      <trkpt lat="45.682427482679486" lon="10.367629174143076">
        <ele>659.12</ele>
        <time>2020-01-15T11:20:04Z</time>
      </trkpt>
      <trkpt lat="45.682524126023054" lon="10.36770704202354">
        <ele>661.04</ele>
        <time>2020-01-15T11:19:53Z</time>
      </trkpt>
      <trkpt lat="45.68263728171587" lon="10.367900747805834">
        <ele>662.49</ele>
        <time>2020-01-15T11:19:35Z</time>
      </trkpt>
      <trkpt lat="45.682756304740906" lon="10.368148013949394">
        <ele>664.89</ele>
        <time>2020-01-15T11:19:15Z</time>
      </trkpt>
      <trkpt lat="45.682763094082475" lon="10.368214901536703">
        <ele>665.37</ele>
        <time>2020-01-15T11:19:10Z</time>
      </trkpt>
      <trkpt lat="45.68278631195426" lon="10.368368122726679">
        <ele>665.37</ele>
        <time>2020-01-15T11:18:59Z</time>
      </trkpt>
      <trkpt lat="45.682813888415694" lon="10.368513632565737">
        <ele>664.41</ele>
        <time>2020-01-15T11:18:49Z</time>
      </trkpt>
      <trkpt lat="45.682778768241405" lon="10.368734328076243">
        <ele>663.45</ele>
        <time>2020-01-15T11:18:34Z</time>
      </trkpt>
      <trkpt lat="45.68278371356428" lon="10.368809849023819">
        <ele>662.97</ele>
        <time>2020-01-15T11:18:29Z</time>
      </trkpt>
      <trkpt lat="45.68279159255326" lon="10.369079997763038">
        <ele>662.97</ele>
        <time>2020-01-15T11:18:12Z</time>
      </trkpt>
      <trkpt lat="45.68278924562037" lon="10.369176976382732">
        <ele>663.45</ele>
        <time>2020-01-15T11:18:06Z</time>
      </trkpt>
      <trkpt lat="45.68283040076494" lon="10.369405634701252">
        <ele>663.45</ele>
        <time>2020-01-15T11:17:53Z</time>
      </trkpt>
      <trkpt lat="45.682796370238066" lon="10.369623648002744">
        <ele>663.45</ele>
        <time>2020-01-15T11:17:38Z</time>
      </trkpt>
      <trkpt lat="45.682745072990656" lon="10.369755998253822">
        <ele>664.41</ele>
        <time>2020-01-15T11:17:29Z</time>
      </trkpt>
      <trkpt lat="45.682734763249755" lon="10.369789525866508">
        <ele>664.41</ele>
        <time>2020-01-15T11:17:27Z</time>
      </trkpt>
      <trkpt lat="45.68274146877229" lon="10.369878374040127">
        <ele>664.89</ele>
        <time>2020-01-15T11:17:22Z</time>
      </trkpt>
      <trkpt lat="45.682750437408686" lon="10.369976609945297">
        <ele>665.85</ele>
        <time>2020-01-15T11:17:16Z</time>
      </trkpt>
      <trkpt lat="45.68274348042905" lon="10.370181379839778">
        <ele>667.29</ele>
        <time>2020-01-15T11:17:01Z</time>
      </trkpt>
      <trkpt lat="45.68274222314358" lon="10.370388412848115">
        <ele>669.22</ele>
        <time>2020-01-15T11:16:45Z</time>
      </trkpt>
      <trkpt lat="45.68274046294391" lon="10.370557392016053">
        <ele>671.14</ele>
        <time>2020-01-15T11:16:30Z</time>
      </trkpt>
      <trkpt lat="45.68273853510618" lon="10.370720587670803">
        <ele>674.02</ele>
        <time>2020-01-15T11:16:15Z</time>
      </trkpt>
      <trkpt lat="45.682793855667114" lon="10.37089484743774">
        <ele>675.94</ele>
        <time>2020-01-15T11:16:00Z</time>
      </trkpt>
      <trkpt lat="45.6828376930207" lon="10.371082853525877">
        <ele>677.87</ele>
        <time>2020-01-15T11:15:42Z</time>
      </trkpt>
      <trkpt lat="45.68284389562905" lon="10.371142197400331">
        <ele>678.35</ele>
        <time>2020-01-15T11:15:37Z</time>
      </trkpt>
      <trkpt lat="45.68283777683973" lon="10.371224004775286">
        <ele>677.87</ele>
        <time>2020-01-15T11:15:31Z</time>
      </trkpt>
      <trkpt lat="45.68286292254925" lon="10.371434055268764">
        <ele>680.75</ele>
        <time>2020-01-15T11:15:17Z</time>
      </trkpt>
      <trkpt lat="45.68285135552287" lon="10.371508402749896">
        <ele>681.71</ele>
        <time>2020-01-15T11:15:09Z</time>
      </trkpt>
      <trkpt lat="45.682833418250084" lon="10.371532291173935">
        <ele>682.67</ele>
        <time>2020-01-15T11:15:05Z</time>
      </trkpt>
      <trkpt lat="45.682821264490485" lon="10.371572021394968">
        <ele>683.63</ele>
        <time>2020-01-15T11:15:01Z</time>
      </trkpt>
      <trkpt lat="45.68277298472822" lon="10.371791627258062">
        <ele>684.6</ele>
        <time>2020-01-15T11:14:45Z</time>
      </trkpt>
      <trkpt lat="45.68280768580735" lon="10.372037384659052">
        <ele>686.04</ele>
        <time>2020-01-15T11:14:29Z</time>
      </trkpt>
      <trkpt lat="45.68281279876828" lon="10.372120952233672">
        <ele>687.0</ele>
        <time>2020-01-15T11:14:24Z</time>
      </trkpt>
      <trkpt lat="45.682810954749584" lon="10.372168393805623">
        <ele>687.48</ele>
        <time>2020-01-15T11:14:21Z</time>
      </trkpt>
      <trkpt lat="45.6828324124217" lon="10.37237785756588">
        <ele>689.4</ele>
        <time>2020-01-15T11:14:06Z</time>
      </trkpt>
      <trkpt lat="45.68283417262137" lon="10.372419012710452">
        <ele>689.88</ele>
        <time>2020-01-15T11:14:03Z</time>
      </trkpt>
      <trkpt lat="45.682857474312186" lon="10.37252546288073">
        <ele>690.84</ele>
        <time>2020-01-15T11:13:56Z</time>
      </trkpt>
      <trkpt lat="45.68285822868347" lon="10.372539795935154">
        <ele>690.84</ele>
        <time>2020-01-15T11:13:55Z</time>
      </trkpt>
      <trkpt lat="45.68287826143205" lon="10.372711708769202">
        <ele>694.21</ele>
        <time>2020-01-15T11:13:39Z</time>
      </trkpt>
      <trkpt lat="45.68286560475826" lon="10.372755462303758">
        <ele>695.65</ele>
        <time>2020-01-15T11:13:35Z</time>
      </trkpt>
      <trkpt lat="45.68285604938865" lon="10.372830983251333">
        <ele>696.61</ele>
        <time>2020-01-15T11:13:20Z</time>
      </trkpt>
      <trkpt lat="45.6828292272985" lon="10.372908348217607">
        <ele>696.61</ele>
        <time>2020-01-15T11:05:52Z</time>
      </trkpt>
      <trkpt lat="45.68281799554825" lon="10.372943803668022">
        <ele>696.61</ele>
        <time>2020-01-15T11:05:33Z</time>
      </trkpt>
      <trkpt lat="45.6828186661005" lon="10.372973224148154">
        <ele>697.09</ele>
        <time>2020-01-15T11:05:09Z</time>
      </trkpt>
      <trkpt lat="45.68279008381069" lon="10.373124433681369">
        <ele>694.69</ele>
        <time>2020-01-15T11:04:51Z</time>
      </trkpt>
      <trkpt lat="45.68278497084975" lon="10.373332304880023">
        <ele>691.33</ele>
        <time>2020-01-15T11:04:37Z</time>
      </trkpt>
      <trkpt lat="45.6828033272177" lon="10.37367319688201">
        <ele>689.4</ele>
        <time>2020-01-15T11:04:18Z</time>
      </trkpt>
      <trkpt lat="45.68280550651252" lon="10.373801356181502">
        <ele>689.4</ele>
        <time>2020-01-15T11:04:11Z</time>
      </trkpt>
      <trkpt lat="45.68277784623206" lon="10.37393026985228">
        <ele>689.4</ele>
        <time>2020-01-15T11:04:04Z</time>
      </trkpt>
      <trkpt lat="45.68272663280368" lon="10.374138057231903">
        <ele>688.92</ele>
        <time>2020-01-15T11:03:51Z</time>
      </trkpt>
      <trkpt lat="45.6827013194561" lon="10.37419748492539">
        <ele>689.88</ele>
        <time>2020-01-15T11:03:47Z</time>
      </trkpt>
      <trkpt lat="45.68269553594291" lon="10.374231347814202">
        <ele>689.4</ele>
        <time>2020-01-15T11:03:45Z</time>
      </trkpt>
      <trkpt lat="45.682678604498506" lon="10.374405859038234">
        <ele>690.36</ele>
        <time>2020-01-15T11:03:30Z</time>
      </trkpt>
      <trkpt lat="45.682678604498506" lon="10.374419772997499">
        <ele>690.36</ele>
        <time>2020-01-15T11:03:29Z</time>
      </trkpt>
      <trkpt lat="45.682655554264784" lon="10.374720012769103">
        <ele>689.88</ele>
        <time>2020-01-15T11:03:12Z</time>
      </trkpt>
      <trkpt lat="45.68261347711086" lon="10.374771561473608">
        <ele>690.36</ele>
        <time>2020-01-15T11:03:08Z</time>
      </trkpt>
      <trkpt lat="45.682562766596675" lon="10.374869462102652">
        <ele>689.88</ele>
        <time>2020-01-15T11:03:02Z</time>
      </trkpt>
      <trkpt lat="45.68238473497331" lon="10.375155787914991">
        <ele>687.48</ele>
        <time>2020-01-15T11:02:41Z</time>
      </trkpt>
      <trkpt lat="45.68229655735195" lon="10.375255029648542">
        <ele>687.48</ele>
        <time>2020-01-15T11:02:32Z</time>
      </trkpt>
      <trkpt lat="45.682248529046774" lon="10.375331388786435">
        <ele>688.44</ele>
        <time>2020-01-15T11:02:26Z</time>
      </trkpt>
      <trkpt lat="45.682109305635095" lon="10.375492069870234">
        <ele>689.88</ele>
        <time>2020-01-15T11:02:11Z</time>
      </trkpt>
      <trkpt lat="45.682005202397704" lon="10.37564487196505">
        <ele>689.4</ele>
        <time>2020-01-15T11:01:57Z</time>
      </trkpt>
      <trkpt lat="45.68200117908418" lon="10.375666748732328">
        <ele>689.88</ele>
        <time>2020-01-15T11:01:52Z</time>
      </trkpt>
      <trkpt lat="45.68200830370188" lon="10.375639675185084">
        <ele>690.36</ele>
        <time>2020-01-15T11:01:20Z</time>
      </trkpt>
      <trkpt lat="45.682007214054465" lon="10.375638166442513">
        <ele>685.08</ele>
        <time>2020-01-15T11:01:19Z</time>
      </trkpt>
      <trkpt lat="45.68198408000171" lon="10.375659875571728">
        <ele>688.92</ele>
        <time>2020-01-15T11:01:05Z</time>
      </trkpt>
      <trkpt lat="45.681994557380676" lon="10.375650655478239">
        <ele>689.88</ele>
        <time>2020-01-15T11:00:32Z</time>
      </trkpt>
      <trkpt lat="45.68199799396098" lon="10.375661635771394">
        <ele>688.92</ele>
        <time>2020-01-15T11:00:30Z</time>
      </trkpt>
      <trkpt lat="45.68194066174328" lon="10.375641267746687">
        <ele>681.23</ele>
        <time>2020-01-15T10:32:37Z</time>
      </trkpt>
      <trkpt lat="45.68192574195564" lon="10.375646045431495">
        <ele>680.75</ele>
        <time>2020-01-15T10:32:34Z</time>
      </trkpt>
      <trkpt lat="45.68177143111825" lon="10.375725673511624">
        <ele>679.31</ele>
        <time>2020-01-15T10:31:54Z</time>
      </trkpt>
      <trkpt lat="45.681493151932955" lon="10.375706059858203">
        <ele>676.91</ele>
        <time>2020-01-15T10:31:30Z</time>
      </trkpt>
      <trkpt lat="45.681329034268856" lon="10.375626599416137">
        <ele>675.46</ele>
        <time>2020-01-15T10:31:08Z</time>
      </trkpt>
      <trkpt lat="45.68116709589958" lon="10.375470025464892">
        <ele>673.06</ele>
        <time>2020-01-15T10:30:51Z</time>
      </trkpt>
      <trkpt lat="45.68111965432763" lon="10.375446891412139">
        <ele>673.06</ele>
        <time>2020-01-15T10:30:49Z</time>
      </trkpt>
      <trkpt lat="45.68087322637439" lon="10.375276822596788">
        <ele>670.66</ele>
        <time>2020-01-15T10:30:32Z</time>
      </trkpt>
      <trkpt lat="45.68068320862949" lon="10.375159224495292">
        <ele>669.22</ele>
        <time>2020-01-15T10:30:14Z</time>
      </trkpt>
      <trkpt lat="45.68049226887524" lon="10.375069621950388">
        <ele>668.73</ele>
        <time>2020-01-15T10:29:58Z</time>
      </trkpt>
      <trkpt lat="45.680308286100626" lon="10.37504087202251">
        <ele>667.77</ele>
        <time>2020-01-15T10:29:43Z</time>
      </trkpt>
      <trkpt lat="45.68017375655472" lon="10.374996615573764">
        <ele>667.29</ele>
        <time>2020-01-15T10:29:27Z</time>
      </trkpt>
      <trkpt lat="45.68016336299479" lon="10.37499351426959">
        <ele>666.81</ele>
        <time>2020-01-15T10:29:26Z</time>
      </trkpt>
      <trkpt lat="45.68009111098945" lon="10.37497004494071">
        <ele>666.81</ele>
        <time>2020-01-15T10:29:18Z</time>
      </trkpt>
      <trkpt lat="45.68008163943887" lon="10.374964764341712">
        <ele>666.81</ele>
        <time>2020-01-15T10:29:17Z</time>
      </trkpt>
      <trkpt lat="45.67988541908562" lon="10.37493341602385">
        <ele>665.37</ele>
        <time>2020-01-15T10:29:01Z</time>
      </trkpt>
      <trkpt lat="45.67956573329866" lon="10.374895697459579">
        <ele>663.45</ele>
        <time>2020-01-15T10:28:42Z</time>
      </trkpt>
      <trkpt lat="45.67944017238915" lon="10.3748962841928">
        <ele>662.97</ele>
        <time>2020-01-15T10:28:26Z</time>
      </trkpt>
      <trkpt lat="45.67932986654341" lon="10.374847585335374">
        <ele>662.01</ele>
        <time>2020-01-15T10:28:02Z</time>
      </trkpt>
      <trkpt lat="45.67913054488599" lon="10.374859487637877">
        <ele>658.64</ele>
        <time>2020-01-15T10:27:41Z</time>
      </trkpt>
      <trkpt lat="45.67899651825428" lon="10.374824618920684">
        <ele>655.76</ele>
        <time>2020-01-15T10:27:26Z</time>
      </trkpt>
      <trkpt lat="45.67898469977081" lon="10.374821098521352">
        <ele>655.28</ele>
        <time>2020-01-15T10:27:06Z</time>
      </trkpt>
      <trkpt lat="45.67887187935412" lon="10.374833419919014">
        <ele>653.83</ele>
        <time>2020-01-15T10:26:42Z</time>
      </trkpt>
      <trkpt lat="45.678767524659634" lon="10.37484741769731">
        <ele>652.39</ele>
        <time>2020-01-15T10:26:23Z</time>
      </trkpt>
      <trkpt lat="45.67875402979553" lon="10.374851441010833">
        <ele>652.87</ele>
        <time>2020-01-15T10:26:22Z</time>
      </trkpt>
      <trkpt lat="45.678608352318406" lon="10.374860661104321">
        <ele>651.91</ele>
        <time>2020-01-15T10:26:09Z</time>
      </trkpt>
      <trkpt lat="45.678598964586854" lon="10.374861666932702">
        <ele>651.43</ele>
        <time>2020-01-15T10:26:08Z</time>
      </trkpt>
      <trkpt lat="45.67855923436582" lon="10.37486158311367">
        <ele>650.95</ele>
        <time>2020-01-15T10:26:05Z</time>
      </trkpt>
      <trkpt lat="45.678546242415905" lon="10.374860912561417">
        <ele>651.91</ele>
        <time>2020-01-15T10:26:04Z</time>
      </trkpt>
      <trkpt lat="45.67853660322726" lon="10.37485714070499">
        <ele>650.95</ele>
        <time>2020-01-15T10:26:03Z</time>
      </trkpt>
      <trkpt lat="45.678501818329096" lon="10.374864935874939">
        <ele>650.95</ele>
        <time>2020-01-15T10:26:00Z</time>
      </trkpt>
      <trkpt lat="45.67830031737685" lon="10.374903911724687">
        <ele>650.47</ele>
        <time>2020-01-15T10:25:44Z</time>
      </trkpt>
      <trkpt lat="45.67811910063028" lon="10.37493534386158">
        <ele>649.51</ele>
        <time>2020-01-15T10:25:30Z</time>
      </trkpt>
      <trkpt lat="45.67791416309774" lon="10.374958897009492">
        <ele>649.51</ele>
        <time>2020-01-15T10:25:13Z</time>
      </trkpt>
      <trkpt lat="45.67762389779091" lon="10.374968955293298">
        <ele>649.51</ele>
        <time>2020-01-15T10:24:52Z</time>
      </trkpt>
      <trkpt lat="45.67744620144367" lon="10.37495244294405">
        <ele>649.99</ele>
        <time>2020-01-15T10:24:36Z</time>
      </trkpt>
      <trkpt lat="45.67726573906839" lon="10.374958561733365">
        <ele>649.99</ele>
        <time>2020-01-15T10:24:19Z</time>
      </trkpt>
      <trkpt lat="45.67717798054218" lon="10.374948587268591">
        <ele>649.99</ele>
        <time>2020-01-15T10:23:57Z</time>
      </trkpt>
      <trkpt lat="45.67695359699428" lon="10.374891506507993">
        <ele>647.59</ele>
        <time>2020-01-15T10:23:36Z</time>
      </trkpt>
      <trkpt lat="45.676937671378255" lon="10.374905755743384">
        <ele>647.59</ele>
        <time>2020-01-15T10:23:03Z</time>
      </trkpt>
      <trkpt lat="45.676871705800295" lon="10.374952610582113">
        <ele>644.7</ele>
        <time>2020-01-15T10:20:04Z</time>
      </trkpt>
      <trkpt lat="45.676641622558236" lon="10.374948335811496">
        <ele>641.34</ele>
        <time>2020-01-15T10:19:45Z</time>
      </trkpt>
      <trkpt lat="45.67650097422302" lon="10.374973313882947">
        <ele>638.45</ele>
        <time>2020-01-15T10:19:30Z</time>
      </trkpt>
      <trkpt lat="45.676364935934544" lon="10.374959735199809">
        <ele>636.05</ele>
        <time>2020-01-15T10:19:13Z</time>
      </trkpt>
      <trkpt lat="45.676160752773285" lon="10.374888824298978">
        <ele>635.09</ele>
        <time>2020-01-15T10:18:58Z</time>
      </trkpt>
      <trkpt lat="45.67612227983773" lon="10.374872982501984">
        <ele>634.13</ele>
        <time>2020-01-15T10:18:53Z</time>
      </trkpt>
      <trkpt lat="45.67603603005409" lon="10.374825205653906">
        <ele>632.2</ele>
        <time>2020-01-15T10:18:39Z</time>
      </trkpt>
      <trkpt lat="45.6759906001389" lon="10.374750103801489">
        <ele>631.24</ele>
        <time>2020-01-15T10:18:20Z</time>
      </trkpt>
      <trkpt lat="45.6759665440768" lon="10.374697633087635">
        <ele>629.8</ele>
        <time>2020-01-15T10:17:59Z</time>
      </trkpt>
      <trkpt lat="45.67578381858766" lon="10.374649437144399">
        <ele>627.88</ele>
        <time>2020-01-15T10:17:42Z</time>
      </trkpt>
      <trkpt lat="45.675680385902524" lon="10.374669972807169">
        <ele>624.51</ele>
        <time>2020-01-15T10:17:24Z</time>
      </trkpt>
      <trkpt lat="45.67557745613158" lon="10.374670140445232">
        <ele>621.63</ele>
        <time>2020-01-15T10:17:11Z</time>
      </trkpt>
      <trkpt lat="45.675558345392346" lon="10.374685814604163">
        <ele>620.67</ele>
        <time>2020-01-15T10:16:38Z</time>
      </trkpt>
      <trkpt lat="45.6754710059613" lon="10.374670224264264">
        <ele>618.75</ele>
        <time>2020-01-15T10:16:20Z</time>
      </trkpt>
      <trkpt lat="45.67530144006014" lon="10.374653544276953">
        <ele>614.9</ele>
        <time>2020-01-15T10:16:02Z</time>
      </trkpt>
      <trkpt lat="45.6752014439553" lon="10.374644491821527">
        <ele>612.98</ele>
        <time>2020-01-15T10:15:53Z</time>
      </trkpt>
      <trkpt lat="45.67503472790122" lon="10.374579196795821">
        <ele>610.09</ele>
        <time>2020-01-15T10:15:35Z</time>
      </trkpt>
      <trkpt lat="45.674861976876855" lon="10.374499233439565">
        <ele>607.69</ele>
        <time>2020-01-15T10:15:16Z</time>
      </trkpt>
      <trkpt lat="45.67469995468855" lon="10.374568048864603">
        <ele>604.81</ele>
        <time>2020-01-15T10:14:57Z</time>
      </trkpt>
      <trkpt lat="45.67456668242812" lon="10.374701153486967">
        <ele>601.92</ele>
        <time>2020-01-15T10:14:36Z</time>
      </trkpt>
      <trkpt lat="45.67449954338372" lon="10.374790336936712">
        <ele>599.52</ele>
        <time>2020-01-15T10:14:13Z</time>
      </trkpt>
      <trkpt lat="45.67435788922012" lon="10.374868623912334">
        <ele>596.64</ele>
        <time>2020-01-15T10:13:59Z</time>
      </trkpt>
      <trkpt lat="45.67422537133098" lon="10.374930901452899">
        <ele>593.27</ele>
        <time>2020-01-15T10:13:33Z</time>
      </trkpt>
      <trkpt lat="45.674128979444504" lon="10.3749739844352">
        <ele>590.87</ele>
        <time>2020-01-15T10:13:13Z</time>
      </trkpt>
      <trkpt lat="45.67409981042147" lon="10.375012205913663">
        <ele>590.87</ele>
        <time>2020-01-15T10:13:06Z</time>
      </trkpt>
      <trkpt lat="45.67408539354801" lon="10.375037351623178">
        <ele>590.39</ele>
        <time>2020-01-15T10:13:03Z</time>
      </trkpt>
      <trkpt lat="45.674035688862205" lon="10.375177916139364">
        <ele>588.95</ele>
        <time>2020-01-15T10:12:46Z</time>
      </trkpt>
      <trkpt lat="45.673972656950355" lon="10.375341949984431">
        <ele>585.58</ele>
        <time>2020-01-15T10:12:33Z</time>
      </trkpt>
      <trkpt lat="45.67386645823717" lon="10.37551335990429">
        <ele>582.22</ele>
        <time>2020-01-15T10:12:17Z</time>
      </trkpt>
      <trkpt lat="45.67376193590462" lon="10.375750064849854">
        <ele>578.85</ele>
        <time>2020-01-15T10:11:56Z</time>
      </trkpt>
      <trkpt lat="45.67370183765888" lon="10.375827345997095">
        <ele>578.37</ele>
        <time>2020-01-15T10:11:47Z</time>
      </trkpt>
      <trkpt lat="45.673547023907304" lon="10.376123478636146">
        <ele>576.93</ele>
        <time>2020-01-15T10:11:23Z</time>
      </trkpt>
      <trkpt lat="45.673440573737025" lon="10.376269910484552">
        <ele>576.45</ele>
        <time>2020-01-15T10:11:10Z</time>
      </trkpt>
      <trkpt lat="45.673389695584774" lon="10.376454815268517">
        <ele>574.04</ele>
        <time>2020-01-15T10:10:41Z</time>
      </trkpt>
      <trkpt lat="45.673283161595464" lon="10.376597726717591">
        <ele>570.68</ele>
        <time>2020-01-15T10:10:24Z</time>
      </trkpt>
      <trkpt lat="45.6731619592756" lon="10.376707194373012">
        <ele>569.24</ele>
        <time>2020-01-15T10:10:07Z</time>
      </trkpt>
      <trkpt lat="45.67312717437744" lon="10.376791348680854">
        <ele>566.83</ele>
        <time>2020-01-15T10:09:46Z</time>
      </trkpt>
      <trkpt lat="45.67311049439013" lon="10.376820685341954">
        <ele>567.32</ele>
        <time>2020-01-15T10:09:31Z</time>
      </trkpt>
      <trkpt lat="45.673041343688965" lon="10.376984048634768">
        <ele>565.39</ele>
        <time>2020-01-15T10:09:12Z</time>
      </trkpt>
      <trkpt lat="45.67292810417712" lon="10.377132827416062">
        <ele>562.03</ele>
        <time>2020-01-15T10:08:57Z</time>
      </trkpt>
      <trkpt lat="45.67288611084223" lon="10.377281103283167">
        <ele>561.07</ele>
        <time>2020-01-15T10:08:32Z</time>
      </trkpt>
      <trkpt lat="45.67294000647962" lon="10.377292670309544">
        <ele>560.11</ele>
        <time>2020-01-15T10:08:14Z</time>
      </trkpt>
      <trkpt lat="45.672970432788134" lon="10.377276074141264">
        <ele>559.62</ele>
        <time>2020-01-15T10:08:11Z</time>
      </trkpt>
      <trkpt lat="45.673151817172766" lon="10.377205330878496">
        <ele>557.22</ele>
        <time>2020-01-15T10:07:51Z</time>
      </trkpt>
      <trkpt lat="45.67316078580916" lon="10.377192506566644">
        <ele>557.22</ele>
        <time>2020-01-15T10:07:50Z</time>
      </trkpt>
      <trkpt lat="45.673326747491956" lon="10.377000141888857">
        <ele>555.78</ele>
        <time>2020-01-15T10:07:35Z</time>
      </trkpt>
      <trkpt lat="45.67346563562751" lon="10.376821020618081">
        <ele>554.82</ele>
        <time>2020-01-15T10:07:20Z</time>
      </trkpt>
      <trkpt lat="45.67360368557274" lon="10.37666947580874">
        <ele>554.34</ele>
        <time>2020-01-15T10:07:03Z</time>
      </trkpt>
      <trkpt lat="45.6737301684916" lon="10.376558415591717">
        <ele>553.38</ele>
        <time>2020-01-15T10:06:47Z</time>
      </trkpt>
      <trkpt lat="45.67389185540378" lon="10.376435117796063">
        <ele>552.41</ele>
        <time>2020-01-15T10:06:31Z</time>
      </trkpt>
      <trkpt lat="45.673940973356366" lon="10.376365464180708">
        <ele>551.93</ele>
        <time>2020-01-15T10:06:24Z</time>
      </trkpt>
      <trkpt lat="45.67394357174635" lon="10.376337468624115">
        <ele>552.9</ele>
        <time>2020-01-15T10:06:20Z</time>
      </trkpt>
      <trkpt lat="45.67396896891296" lon="10.376261109486222">
        <ele>550.49</ele>
        <time>2020-01-15T10:06:03Z</time>
      </trkpt>
      <trkpt lat="45.674015237018466" lon="10.376261863857508">
        <ele>550.01</ele>
        <time>2020-01-15T10:05:56Z</time>
      </trkpt>
      <trkpt lat="45.67404557950795" lon="10.376308718696237">
        <ele>548.57</ele>
        <time>2020-01-15T10:05:33Z</time>
      </trkpt>
      <trkpt lat="45.67416158504784" lon="10.376304863020778">
        <ele>546.65</ele>
        <time>2020-01-15T10:05:26Z</time>
      </trkpt>
      <trkpt lat="45.67436610348523" lon="10.376402847468853">
        <ele>543.28</ele>
        <time>2020-01-15T10:05:08Z</time>
      </trkpt>
      <trkpt lat="45.674524353817105" lon="10.376487169414759">
        <ele>540.4</ele>
        <time>2020-01-15T10:04:51Z</time>
      </trkpt>
      <trkpt lat="45.67462904378772" lon="10.376622788608074">
        <ele>536.55</ele>
        <time>2020-01-15T10:04:32Z</time>
      </trkpt>
      <trkpt lat="45.67467749118805" lon="10.376666206866503">
        <ele>535.59</ele>
        <time>2020-01-15T10:04:26Z</time>
      </trkpt>
      <trkpt lat="45.67471319809556" lon="10.376709960401058">
        <ele>534.15</ele>
        <time>2020-01-15T10:04:17Z</time>
      </trkpt>
      <trkpt lat="45.674680005759" lon="10.376748433336616">
        <ele>532.23</ele>
        <time>2020-01-15T10:03:51Z</time>
      </trkpt>
      <trkpt lat="45.67469257861376" lon="10.376911545172334">
        <ele>531.75</ele>
        <time>2020-01-15T10:03:30Z</time>
      </trkpt>
      <trkpt lat="45.674611274152994" lon="10.376904672011733">
        <ele>527.42</ele>
        <time>2020-01-15T10:01:18Z</time>
      </trkpt>
      <trkpt lat="45.67444254644215" lon="10.376981366425753">
        <ele>525.98</ele>
        <time>2020-01-15T10:01:01Z</time>
      </trkpt>
      <trkpt lat="45.674374317750335" lon="10.377003075554967">
        <ele>524.06</ele>
        <time>2020-01-15T10:00:53Z</time>
      </trkpt>
      <trkpt lat="45.674303993582726" lon="10.377030903473496">
        <ele>524.06</ele>
        <time>2020-01-15T10:00:34Z</time>
      </trkpt>
      <trkpt lat="45.67409369163215" lon="10.377091923728585">
        <ele>522.13</ele>
        <time>2020-01-15T10:00:14Z</time>
      </trkpt>
      <trkpt lat="45.674066450446844" lon="10.377101311460137">
        <ele>521.65</ele>
        <time>2020-01-15T10:00:10Z</time>
      </trkpt>
      <trkpt lat="45.67395974881947" lon="10.377264004200697">
        <ele>518.29</ele>
        <time>2020-01-15T09:59:55Z</time>
      </trkpt>
      <trkpt lat="45.67383795976639" lon="10.37737456150353">
        <ele>514.92</ele>
        <time>2020-01-15T09:59:39Z</time>
      </trkpt>
      <trkpt lat="45.67374483682215" lon="10.377572122961283">
        <ele>511.56</ele>
        <time>2020-01-15T09:59:22Z</time>
      </trkpt>
      <trkpt lat="45.673681972548366" lon="10.37768636830151">
        <ele>508.19</ele>
        <time>2020-01-15T09:59:08Z</time>
      </trkpt>
      <trkpt lat="45.67364366725087" lon="10.377961630001664">
        <ele>505.31</ele>
        <time>2020-01-15T09:58:49Z</time>
      </trkpt>
      <trkpt lat="45.67362388595939" lon="10.378164388239384">
        <ele>501.46</ele>
        <time>2020-01-15T09:58:34Z</time>
      </trkpt>
      <trkpt lat="45.673585161566734" lon="10.37833034992218">
        <ele>498.58</ele>
        <time>2020-01-15T09:58:16Z</time>
      </trkpt>
      <trkpt lat="45.67352422513068" lon="10.378576694056392">
        <ele>495.7</ele>
        <time>2020-01-15T09:58:00Z</time>
      </trkpt>
      <trkpt lat="45.673464043065906" lon="10.378757743164897">
        <ele>491.85</ele>
        <time>2020-01-15T09:57:43Z</time>
      </trkpt>
      <trkpt lat="45.67341132089496" lon="10.379051864147186">
        <ele>488.49</ele>
        <time>2020-01-15T09:57:26Z</time>
      </trkpt>
      <trkpt lat="45.673361364752054" lon="10.379266776144505">
        <ele>487.53</ele>
        <time>2020-01-15T09:57:09Z</time>
      </trkpt>
      <trkpt lat="45.673290034756064" lon="10.379513539373875">
        <ele>484.16</ele>
        <time>2020-01-15T09:56:52Z</time>
      </trkpt>
      <trkpt lat="45.67325457930565" lon="10.379649577662349">
        <ele>481.28</ele>
        <time>2020-01-15T09:56:39Z</time>
      </trkpt>
      <trkpt lat="45.67319448105991" lon="10.379881588742137">
        <ele>478.39</ele>
        <time>2020-01-15T09:56:19Z</time>
      </trkpt>
      <trkpt lat="45.67313496954739" lon="10.38017738610506">
        <ele>475.51</ele>
        <time>2020-01-15T09:56:00Z</time>
      </trkpt>
      <trkpt lat="45.67312625236809" lon="10.380438566207886">
        <ele>472.14</ele>
        <time>2020-01-15T09:55:46Z</time>
      </trkpt>
      <trkpt lat="45.67315483465791" lon="10.380634954199195">
        <ele>470.7</ele>
        <time>2020-01-15T09:55:28Z</time>
      </trkpt>
      <trkpt lat="45.673168832436204" lon="10.380833186209202">
        <ele>466.86</ele>
        <time>2020-01-15T09:55:13Z</time>
      </trkpt>
      <trkpt lat="45.673175286501646" lon="10.380843076854944">
        <ele>467.34</ele>
        <time>2020-01-15T09:55:11Z</time>
      </trkpt>
      <trkpt lat="45.67319397814572" lon="10.380830755457282">
        <ele>466.86</ele>
        <time>2020-01-15T09:54:59Z</time>
      </trkpt>
      <trkpt lat="45.673189451918006" lon="10.380861014127731">
        <ele>465.9</ele>
        <time>2020-01-15T09:54:56Z</time>
      </trkpt>
      <trkpt lat="45.67320227622986" lon="10.380869060754776">
        <ele>464.93</ele>
        <time>2020-01-15T09:54:53Z</time>
      </trkpt>
      <trkpt lat="45.67321543581784" lon="10.380882723256946">
        <ele>463.97</ele>
        <time>2020-01-15T09:54:30Z</time>
      </trkpt>
      <trkpt lat="45.67320814356208" lon="10.380896050482988">
        <ele>465.9</ele>
        <time>2020-01-15T09:54:26Z</time>
      </trkpt>
      <trkpt lat="45.67326572723687" lon="10.381057653576136">
        <ele>462.53</ele>
        <time>2020-01-15T09:54:08Z</time>
      </trkpt>
      <trkpt lat="45.673359017819166" lon="10.381227722391486">
        <ele>461.09</ele>
        <time>2020-01-15T09:53:53Z</time>
      </trkpt>
      <trkpt lat="45.673442585393786" lon="10.381336268037558">
        <ele>459.17</ele>
        <time>2020-01-15T09:53:44Z</time>
      </trkpt>
      <trkpt lat="45.67348055541515" lon="10.381402233615518">
        <ele>458.21</ele>
        <time>2020-01-15T09:53:38Z</time>
      </trkpt>
      <trkpt lat="45.67348625510931" lon="10.381412794813514">
        <ele>458.21</ele>
        <time>2020-01-15T09:53:37Z</time>
      </trkpt>
      <trkpt lat="45.67348784767091" lon="10.381533913314342">
        <ele>455.32</ele>
        <time>2020-01-15T09:53:24Z</time>
      </trkpt>
      <trkpt lat="45.67346127703786" lon="10.381575906649232">
        <ele>455.8</ele>
        <time>2020-01-15T09:53:14Z</time>
      </trkpt>
      <trkpt lat="45.67347502335906" lon="10.381805822253227">
        <ele>453.88</ele>
        <time>2020-01-15T09:52:42Z</time>
      </trkpt>
      <trkpt lat="45.67329405806959" lon="10.381890647113323">
        <ele>452.44</ele>
        <time>2020-01-15T09:52:22Z</time>
      </trkpt>
      <trkpt lat="45.673223566263914" lon="10.38189978338778">
        <ele>450.52</ele>
        <time>2020-01-15T09:52:14Z</time>
      </trkpt>
      <trkpt lat="45.673034973442554" lon="10.381883438676596">
        <ele>448.59</ele>
        <time>2020-01-15T09:51:55Z</time>
      </trkpt>
      <trkpt lat="45.67286096513271" lon="10.382010843604803">
        <ele>445.71</ele>
        <time>2020-01-15T09:51:35Z</time>
      </trkpt>
      <trkpt lat="45.672848392277956" lon="10.38201805204153">
        <ele>445.23</ele>
        <time>2020-01-15T09:51:34Z</time>
      </trkpt>
      <trkpt lat="45.6727840192616" lon="10.382102122530341">
        <ele>443.79</ele>
        <time>2020-01-15T09:51:25Z</time>
      </trkpt>
      <trkpt lat="45.672767171636224" lon="10.382121065631509">
        <ele>443.31</ele>
        <time>2020-01-15T09:51:23Z</time>
      </trkpt>
      <trkpt lat="45.672594252973795" lon="10.38232197985053">
        <ele>440.42</ele>
        <time>2020-01-15T09:51:00Z</time>
      </trkpt>
      <trkpt lat="45.672536585479975" lon="10.382479894906282">
        <ele>438.02</ele>
        <time>2020-01-15T09:50:49Z</time>
      </trkpt>
      <trkpt lat="45.67247045226395" lon="10.382729088887572">
        <ele>435.61</ele>
        <time>2020-01-15T09:50:31Z</time>
      </trkpt>
      <trkpt lat="45.672441283240914" lon="10.382796060293913">
        <ele>434.65</ele>
        <time>2020-01-15T09:50:13Z</time>
      </trkpt>
      <trkpt lat="45.67231689579785" lon="10.383085990324616">
        <ele>433.21</ele>
        <time>2020-01-15T09:49:53Z</time>
      </trkpt>
      <trkpt lat="45.67229644395411" lon="10.383129073306918">
        <ele>432.73</ele>
        <time>2020-01-15T09:49:50Z</time>
      </trkpt>
      <trkpt lat="45.67219913005829" lon="10.383341303095222">
        <ele>432.25</ele>
        <time>2020-01-15T09:49:33Z</time>
      </trkpt>
      <trkpt lat="45.67207122221589" lon="10.383460745215416">
        <ele>431.77</ele>
        <time>2020-01-15T09:49:12Z</time>
      </trkpt>
      <trkpt lat="45.671944906935096" lon="10.383735923096538">
        <ele>429.37</ele>
        <time>2020-01-15T09:48:52Z</time>
      </trkpt>
      <trkpt lat="45.671913139522076" lon="10.383863747119904">
        <ele>427.92</ele>
        <time>2020-01-15T09:48:45Z</time>
      </trkpt>
      <trkpt lat="45.671834433451295" lon="10.384131968021393">
        <ele>425.04</ele>
        <time>2020-01-15T09:48:27Z</time>
      </trkpt>
      <trkpt lat="45.67175170406699" lon="10.384308658540249">
        <ele>423.12</ele>
        <time>2020-01-15T09:48:15Z</time>
      </trkpt>
      <trkpt lat="45.67168917506933" lon="10.38441033102572">
        <ele>421.19</ele>
        <time>2020-01-15T09:48:07Z</time>
      </trkpt>
      <trkpt lat="45.67165774293244" lon="10.384451318532228">
        <ele>420.23</ele>
        <time>2020-01-15T09:48:03Z</time>
      </trkpt>
      <trkpt lat="45.671637458726764" lon="10.38447923026979">
        <ele>420.71</ele>
        <time>2020-01-15T09:48:00Z</time>
      </trkpt>
      <trkpt lat="45.671628238633275" lon="10.384491048753262">
        <ele>419.75</ele>
        <time>2020-01-15T09:47:59Z</time>
      </trkpt>
      <trkpt lat="45.67161859944463" lon="10.384504292160273">
        <ele>419.75</ele>
        <time>2020-01-15T09:47:58Z</time>
      </trkpt>
      <trkpt lat="45.671560345217586" lon="10.384577633813024">
        <ele>419.27</ele>
        <time>2020-01-15T09:47:49Z</time>
      </trkpt>
      <trkpt lat="45.67150142043829" lon="10.384654076769948">
        <ele>418.31</ele>
        <time>2020-01-15T09:47:43Z</time>
      </trkpt>
      <trkpt lat="45.67137569189072" lon="10.384825738146901">
        <ele>416.87</ele>
        <time>2020-01-15T09:47:07Z</time>
      </trkpt>
      <trkpt lat="45.671264212578535" lon="10.385049702599645">
        <ele>415.43</ele>
        <time>2020-01-15T09:46:44Z</time>
      </trkpt>
      <trkpt lat="45.67125507630408" lon="10.385060431435704">
        <ele>415.43</ele>
        <time>2020-01-15T09:46:43Z</time>
      </trkpt>
      <trkpt lat="45.671247616410255" lon="10.385072249919176">
        <ele>415.43</ele>
        <time>2020-01-15T09:46:42Z</time>
      </trkpt>
      <trkpt lat="45.671228002756834" lon="10.385105274617672">
        <ele>413.98</ele>
        <time>2020-01-15T09:46:39Z</time>
      </trkpt>
      <trkpt lat="45.6711882725358" lon="10.385177191346884">
        <ele>413.02</ele>
        <time>2020-01-15T09:46:32Z</time>
      </trkpt>
      <trkpt lat="45.67116513848305" lon="10.385230081155896">
        <ele>413.02</ele>
        <time>2020-01-15T09:46:26Z</time>
      </trkpt>
      <trkpt lat="45.67111283540726" lon="10.385391935706139">
        <ele>409.66</ele>
        <time>2020-01-15T09:46:14Z</time>
      </trkpt>
      <trkpt lat="45.6711052916944" lon="10.385694522410631">
        <ele>406.77</ele>
        <time>2020-01-15T09:45:55Z</time>
      </trkpt>
      <trkpt lat="45.67116882652044" lon="10.386011274531484">
        <ele>404.85</ele>
        <time>2020-01-15T09:45:35Z</time>
      </trkpt>
      <trkpt lat="45.671249125152826" lon="10.386365242302418">
        <ele>403.41</ele>
        <time>2020-01-15T09:45:14Z</time>
      </trkpt>
      <trkpt lat="45.671250047162175" lon="10.386396003887057">
        <ele>403.41</ele>
        <time>2020-01-15T09:45:12Z</time>
      </trkpt>
      <trkpt lat="45.67124401219189" lon="10.386435566470027">
        <ele>398.6</ele>
        <time>2020-01-15T09:42:46Z</time>
      </trkpt>
      <trkpt lat="45.67123839631677" lon="10.386486612260342">
        <ele>398.12</ele>
        <time>2020-01-15T09:42:41Z</time>
      </trkpt>
      <trkpt lat="45.67123764194548" lon="10.386507231742144">
        <ele>398.6</ele>
        <time>2020-01-15T09:42:40Z</time>
      </trkpt>
      <trkpt lat="45.6712350435555" lon="10.38652558811009">
        <ele>398.12</ele>
        <time>2020-01-15T09:42:39Z</time>
      </trkpt>
      <trkpt lat="45.67123009823263" lon="10.38654268719256">
        <ele>398.12</ele>
        <time>2020-01-15T09:42:38Z</time>
      </trkpt>
      <trkpt lat="45.67122305743396" lon="10.38655685260892">
        <ele>398.12</ele>
        <time>2020-01-15T09:42:37Z</time>
      </trkpt>
      <trkpt lat="45.671214340254664" lon="10.386568838730454">
        <ele>398.6</ele>
        <time>2020-01-15T09:42:36Z</time>
      </trkpt>
      <trkpt lat="45.67120394669473" lon="10.386578980833292">
        <ele>398.12</ele>
        <time>2020-01-15T09:42:35Z</time>
      </trkpt>
      <trkpt lat="45.67119296640158" lon="10.386584596708417">
        <ele>398.6</ele>
        <time>2020-01-15T09:42:34Z</time>
      </trkpt>
      <trkpt lat="45.67100102081895" lon="10.386521900072694">
        <ele>398.12</ele>
        <time>2020-01-15T09:42:19Z</time>
      </trkpt>
      <trkpt lat="45.67098920233548" lon="10.386519888415933">
        <ele>397.64</ele>
        <time>2020-01-15T09:42:18Z</time>
      </trkpt>
      <trkpt lat="45.67097713239491" lon="10.38651829585433">
        <ele>398.12</ele>
        <time>2020-01-15T09:42:17Z</time>
      </trkpt>
      <trkpt lat="45.67096581682563" lon="10.386516116559505">
        <ele>398.12</ele>
        <time>2020-01-15T09:42:16Z</time>
      </trkpt>
      <trkpt lat="45.67095316015184" lon="10.386514104902744">
        <ele>397.64</ele>
        <time>2020-01-15T09:42:15Z</time>
      </trkpt>
      <trkpt lat="45.67077588289976" lon="10.386527013033628">
        <ele>396.2</ele>
        <time>2020-01-15T09:42:00Z</time>
      </trkpt>
      <trkpt lat="45.670619644224644" lon="10.386657938361168">
        <ele>392.84</ele>
        <time>2020-01-15T09:41:42Z</time>
      </trkpt>
      <trkpt lat="45.67061461508274" lon="10.386670595034957">
        <ele>392.84</ele>
        <time>2020-01-15T09:41:41Z</time>
      </trkpt>
      <trkpt lat="45.67058335058391" lon="10.386734968051314">
        <ele>392.36</ele>
        <time>2020-01-15T09:41:34Z</time>
      </trkpt>
      <trkpt lat="45.670539597049356" lon="10.386995896697044">
        <ele>389.95</ele>
        <time>2020-01-15T09:41:19Z</time>
      </trkpt>
      <trkpt lat="45.670539597049356" lon="10.38702255114913">
        <ele>389.95</ele>
        <time>2020-01-15T09:41:17Z</time>
      </trkpt>
      <trkpt lat="45.67051637917757" lon="10.38722145371139">
        <ele>387.55</ele>
        <time>2020-01-15T09:41:03Z</time>
      </trkpt>
      <trkpt lat="45.67051738500595" lon="10.38723855279386">
        <ele>387.07</ele>
        <time>2020-01-15T09:41:02Z</time>
      </trkpt>
      <trkpt lat="45.67051528953016" lon="10.38725171238184">
        <ele>387.07</ele>
        <time>2020-01-15T09:41:01Z</time>
      </trkpt>
      <trkpt lat="45.67048276774585" lon="10.387394037097692">
        <ele>386.11</ele>
        <time>2020-01-15T09:40:39Z</time>
      </trkpt>
      <trkpt lat="45.670476565137506" lon="10.387493865564466">
        <ele>384.66</ele>
        <time>2020-01-15T09:40:17Z</time>
      </trkpt>
      <trkpt lat="45.670469189062715" lon="10.38771397434175">
        <ele>383.22</ele>
        <time>2020-01-15T09:39:59Z</time>
      </trkpt>
      <trkpt lat="45.67044102586806" lon="10.387784047052264">
        <ele>381.3</ele>
        <time>2020-01-15T09:39:49Z</time>
      </trkpt>
      <trkpt lat="45.67038252018392" lon="10.388094512745738">
        <ele>379.86</ele>
        <time>2020-01-15T09:39:28Z</time>
      </trkpt>
      <trkpt lat="45.67040188238025" lon="10.388419814407825">
        <ele>377.45</ele>
        <time>2020-01-15T09:39:07Z</time>
      </trkpt>
      <trkpt lat="45.67050917074084" lon="10.388756347820163">
        <ele>373.61</ele>
        <time>2020-01-15T09:38:46Z</time>
      </trkpt>
      <trkpt lat="45.67052073776722" lon="10.38896631449461">
        <ele>372.17</ele>
        <time>2020-01-15T09:38:33Z</time>
      </trkpt>
      <trkpt lat="45.670569436624646" lon="10.389260686933994">
        <ele>369.28</ele>
        <time>2020-01-15T09:38:15Z</time>
      </trkpt>
      <trkpt lat="45.67069172859192" lon="10.389675088226795">
        <ele>365.92</ele>
        <time>2020-01-15T09:37:50Z</time>
      </trkpt>
      <trkpt lat="45.670841597020626" lon="10.390041628852487">
        <ele>364.48</ele>
        <time>2020-01-15T09:37:27Z</time>
      </trkpt>
      <trkpt lat="45.670843441039324" lon="10.39005939848721">
        <ele>364.48</ele>
        <time>2020-01-15T09:37:26Z</time>
      </trkpt>
      <trkpt lat="45.670844949781895" lon="10.390078760683537">
        <ele>364.0</ele>
        <time>2020-01-15T09:37:25Z</time>
      </trkpt>
      <trkpt lat="45.67087898030877" lon="10.390148749575019">
        <ele>364.48</ele>
        <time>2020-01-15T09:37:17Z</time>
      </trkpt>
      <trkpt lat="45.67087797448039" lon="10.390188060700893">
        <ele>364.0</ele>
        <time>2020-01-15T09:36:49Z</time>
      </trkpt>
      <trkpt lat="45.67087705247104" lon="10.39020398631692">
        <ele>362.07</ele>
        <time>2020-01-15T09:36:39Z</time>
      </trkpt>
      <trkpt lat="45.670916782692075" lon="10.390269868075848">
        <ele>356.31</ele>
        <time>2020-01-15T09:34:04Z</time>
      </trkpt>
      <trkpt lat="45.670929942280054" lon="10.390386544167995">
        <ele>355.83</ele>
        <time>2020-01-15T09:33:58Z</time>
      </trkpt>
      <trkpt lat="45.67092868499458" lon="10.390403140336275">
        <ele>356.31</ele>
        <time>2020-01-15T09:33:57Z</time>
      </trkpt>
      <trkpt lat="45.67094041965902" lon="10.390504309907556">
        <ele>356.31</ele>
        <time>2020-01-15T09:33:51Z</time>
      </trkpt>
      <trkpt lat="45.670929439365864" lon="10.390527192503214">
        <ele>356.31</ele>
        <time>2020-01-15T09:33:50Z</time>
      </trkpt>
      <trkpt lat="45.67091988399625" lon="10.390596343204379">
        <ele>356.79</ele>
        <time>2020-01-15T09:33:43Z</time>
      </trkpt>
      <trkpt lat="45.67093463614583" lon="10.390671445056796">
        <ele>356.31</ele>
        <time>2020-01-15T09:33:30Z</time>
      </trkpt>
      <trkpt lat="45.67093790508807" lon="10.390742607414722">
        <ele>356.79</ele>
        <time>2020-01-15T09:33:26Z</time>
      </trkpt>
      <trkpt lat="45.67094385623932" lon="10.390765992924571">
        <ele>356.79</ele>
        <time>2020-01-15T09:33:25Z</time>
      </trkpt>
      <trkpt lat="45.67094846628606" lon="10.390784097835422">
        <ele>356.31</ele>
        <time>2020-01-15T09:33:24Z</time>
      </trkpt>
      <trkpt lat="45.6709274277091" lon="10.390988197177649">
        <ele>355.34</ele>
        <time>2020-01-15T09:33:13Z</time>
      </trkpt>
      <trkpt lat="45.67092843353748" lon="10.391005044803023">
        <ele>354.86</ele>
        <time>2020-01-15T09:33:12Z</time>
      </trkpt>
      <trkpt lat="45.67092969082296" lon="10.391039410606027">
        <ele>354.38</ele>
        <time>2020-01-15T09:33:10Z</time>
      </trkpt>
      <trkpt lat="45.670888032764196" lon="10.39118709973991">
        <ele>351.98</ele>
        <time>2020-01-15T09:32:38Z</time>
      </trkpt>
      <trkpt lat="45.670887026935816" lon="10.391188943758607">
        <ele>354.38</ele>
        <time>2020-01-15T09:32:36Z</time>
      </trkpt>
      <trkpt lat="45.670887446030974" lon="10.391193218529224">
        <ele>5787.75</ele>
        <time>2020-01-15T09:32:35Z</time>
      </trkpt>
      <trkpt lat="45.67088870331645" lon="10.391205959022045">
        <ele>442.82</ele>
        <time>2020-01-15T09:32:25Z</time>
      </trkpt>
      <trkpt lat="45.67088903859258" lon="10.391206294298172">
        <ele>442.82</ele>
        <time>2020-01-15T09:32:24Z</time>
      </trkpt>
    </trkseg>
  </trk>
</gpx>
